
Distance (Route):
Temperature : -17.5°C
Humidity : 5.3%
Pressure : 456.5hPa| Receiver | Frames | First received | Last received |
|---|---|---|---|
| SQ9EZE-13 | 271 | 2026-09-05 11:35:45 | 2026-09-05 13:10:28 |
| SP9KGR-15 | 155 | 2026-09-05 11:52:18 | 2026-09-05 13:16:29 |
| GYPAP8-17 | 79 | 2026-09-05 11:35:30 | 2026-09-05 13:16:20 |
| SQ9EZE-14 | 62 | 2026-09-05 11:35:26 | 2026-09-05 13:10:19 |
| OM5KV | 37 | 2026-09-05 11:35:59 | 2026-09-05 11:39:01 |
| OE5DRO-10 | 12 | 2026-09-05 12:40:42 | 2026-09-05 12:55:20 |
| OE3JTB-15 | 11 | 2026-09-05 11:36:57 | 2026-09-05 12:05:40 |
| LZ4TU-5 | 9 | 2026-09-05 12:41:07 | 2026-09-05 12:57:29 |
| S52SK | 5 | 2026-09-05 12:48:59 | 2026-09-05 12:56:35 |
| POL2MAQ | 3 | 2026-09-05 13:08:35 | 2026-09-05 13:09:38 |
| HA6NAB-11 | 2 | 2026-09-05 12:52:16 | 2026-09-05 12:56:10 |
| Receiver | Date | Latitude | Longitude | Direction | Speed | Altitude | Climb | Temperature | Humidity | Pressure | Voltage | Killtimer | Uptime | BKT | XDATA |
|---|---|---|---|---|---|---|---|---|---|---|---|---|---|---|---|
| SP9KGR-15 | 2026-09-05 13:16:29 | -2.02832 | -54.06916 | 0° | 0km/h | 27m | 0.0m/s | -17.5°C | 5.3% | 456.5hPa | 2.7V | 00:00:00 | 00:00:00 | 00:00:00 | |
| GYPAP8-17 | 2026-09-05 13:16:20 | -2.02832 | -54.06916 | 0° | 0km/h | 27m | 0.0m/s | -18.4°C | 8.1% | 449.6hPa | 2.7V | 00:00:00 | 00:00:00 | 00:00:00 | |
| SP9KGR-15 | 2026-09-05 13:16:14 | -2.02832 | -54.06916 | 0° | 0km/h | 27m | 0.0m/s | -19.1°C | 7.8% | 444.6hPa | 2.7V | 00:00:00 | 00:00:00 | 00:00:00 | |
| SP9KGR-15 | 2026-09-05 13:15:58 | -2.02832 | -54.06916 | 0° | 0km/h | 27m | 0.0m/s | -20.6°C | 7.6% | 432.1hPa | 2.7V | 00:00:00 | 00:00:00 | 00:00:00 | |
| SP9KGR-15 | 2026-09-05 13:15:42 | -2.02832 | -54.06916 | 0° | 0km/h | 27m | 0.0m/s | -22.5°C | 7.5% | 419.5hPa | 2.7V | 00:00:00 | 00:00:00 | 00:00:00 | |
| GYPAP8-17 | 2026-09-05 13:15:35 | -2.02832 | -54.06916 | 0° | 0km/h | 27m | 0.0m/s | -23.0°C | 6.4% | 413.8hPa | 2.7V | 00:00:00 | 00:00:00 | 00:00:00 | |
| SP9KGR-15 | 2026-09-05 13:15:27 | -2.02832 | -54.06916 | 0° | 0km/h | 27m | 0.0m/s | -23.6°C | 5.8% | 407.8hPa | 2.7V | 00:00:00 | 00:00:00 | 00:00:00 | |
| SP9KGR-15 | 2026-09-05 13:15:11 | -2.02832 | -54.06916 | 0° | 0km/h | 27m | 0.0m/s | -25.1°C | 7.8% | 395.3hPa | 2.7V | 00:00:00 | 00:00:00 | 00:00:00 | |
| SP9KGR-15 | 2026-09-05 13:14:55 | -2.02832 | -54.06916 | 0° | 0km/h | 27m | 0.0m/s | -27.0°C | 7.7% | 383.2hPa | 2.7V | 00:00:00 | 00:00:00 | 00:00:00 | |
| GYPAP8-17 | 2026-09-05 13:14:51 | -2.02832 | -54.06916 | 0° | 0km/h | 27m | 0.0m/s | -27.5°C | 7.6% | 380.0hPa | 2.7V | 00:00:00 | 00:00:00 | 00:00:00 | |
| SP9KGR-15 | 2026-09-05 13:14:40 | -2.02832 | -54.06916 | 0° | 0km/h | 27m | 0.0m/s | -28.6°C | 6.9% | 372.0hPa | 2.7V | 00:00:00 | 00:00:00 | 00:00:00 | |
| SP9KGR-15 | 2026-09-05 13:14:24 | -2.02832 | -54.06916 | 0° | 0km/h | 27m | 0.0m/s | -30.2°C | 6.6% | 359.6hPa | 2.7V | 00:00:00 | 00:00:00 | 00:00:00 | |
| SP9KGR-15 | 2026-09-05 13:14:09 | -2.02832 | -54.06916 | 0° | 0km/h | 27m | 0.0m/s | -31.1°C | 6.8% | 348.4hPa | 2.7V | 00:00:00 | 00:00:00 | 00:00:00 | |
| GYPAP8-17 | 2026-09-05 13:14:07 | -2.02832 | -54.06916 | 0° | 0km/h | 27m | 0.0m/s | -31.3°C | 6.8% | 347.0hPa | 2.7V | 00:00:00 | 00:00:00 | 00:00:00 | |
| SP9KGR-15 | 2026-09-05 13:13:54 | -2.02832 | -54.06916 | 0° | 0km/h | 27m | 0.0m/s | -32.8°C | 10.1% | 337.4hPa | 2.7V | 00:00:00 | 00:00:00 | 00:00:00 | |
| SP9KGR-15 | 2026-09-05 13:13:38 | -2.02832 | -54.06916 | 0° | 0km/h | 27m | 0.0m/s | -35.0°C | 15.7% | 325.9hPa | 2.7V | 00:00:00 | 00:00:00 | 00:00:00 | |
| GYPAP8-17 | 2026-09-05 13:13:23 | -2.02832 | -54.06916 | 0° | 0km/h | 27m | 0.0m/s | -37.1°C | 21.5% | 315.2hPa | 2.7V | 00:00:00 | 00:00:00 | 00:00:00 | |
| SP9KGR-15 | 2026-09-05 13:13:23 | -2.02832 | -54.06916 | 0° | 0km/h | 27m | 0.0m/s | -37.1°C | 21.5% | 315.2hPa | 2.7V | 00:00:00 | 00:00:00 | 00:00:00 | |
| SP9KGR-15 | 2026-09-05 13:13:07 | -2.02832 | -54.06916 | 0° | 0km/h | 27m | 0.0m/s | -39.2°C | 19.0% | 304.0hPa | 2.7V | 00:00:00 | 00:00:00 | 00:00:00 | |
| SP9KGR-15 | 2026-09-05 13:12:52 | -2.02832 | -54.06916 | 0° | 0km/h | 27m | 0.0m/s | -41.3°C | 27.5% | 293.8hPa | 2.7V | 00:00:00 | 00:00:00 | 00:00:00 | |
| GYPAP8-17 | 2026-09-05 13:12:38 | -2.02832 | -54.06916 | 0° | 0km/h | 27m | 0.0m/s | -43.3°C | 35.8% | 284.4hPa | 2.7V | 00:00:00 | 00:00:00 | 00:00:00 | |
| SP9KGR-15 | 2026-09-05 13:12:37 | -2.02832 | -54.06916 | 0° | 0km/h | 27m | 0.0m/s | -43.4°C | 36.0% | 283.7hPa | 2.7V | 00:00:00 | 00:00:00 | 00:00:00 | |
| SP9KGR-15 | 2026-09-05 13:12:21 | -2.02832 | -54.06916 | 0° | 0km/h | 27m | 0.0m/s | -45.6°C | 30.2% | 273.6hPa | 2.7V | 00:00:00 | 00:00:00 | 00:00:00 | |
| SP9KGR-15 | 2026-09-05 13:12:06 | -2.02832 | -54.06916 | 0° | 0km/h | 27m | 0.0m/s | -47.1°C | 20.1% | 264.5hPa | 2.7V | 00:00:00 | 00:00:00 | 00:00:00 | |
| GYPAP8-17 | 2026-09-05 13:11:54 | -2.02832 | -54.06916 | 0° | 0km/h | 27m | 0.0m/s | -48.8°C | 22.8% | 257.2hPa | 2.7V | 00:00:00 | 00:00:00 | 00:00:00 | |
| SP9KGR-15 | 2026-09-05 13:11:50 | -2.02832 | -54.06916 | 0° | 0km/h | 27m | 0.0m/s | -49.4°C | 23.6% | 254.8hPa | 2.7V | 00:00:00 | 00:00:00 | 00:00:00 | |
| SP9KGR-15 | 2026-09-05 13:11:35 | -2.02832 | -54.06916 | 0° | 0km/h | 27m | 0.0m/s | -51.4°C | 26.8% | 245.8hPa | 2.7V | 00:00:00 | 00:00:00 | 00:00:00 | |
| SP9KGR-15 | 2026-09-05 13:11:19 | -2.02832 | -54.06916 | 0° | 0km/h | 27m | 0.0m/s | -53.5°C | 30.4% | 236.4hPa | 2.7V | 00:00:00 | 00:00:00 | 00:00:00 | |
| GYPAP8-17 | 2026-09-05 13:11:10 | -2.02832 | -54.06916 | 0° | 0km/h | 27m | 0.0m/s | -54.6°C | 30.6% | 231.1hPa | 2.7V | 00:00:00 | 00:00:00 | 00:00:00 | |
| SP9KGR-15 | 2026-09-05 13:11:02 | -2.02832 | -54.06916 | 0° | 0km/h | 27m | 0.0m/s | -55.7°C | 31.1% | 226.4hPa | 2.7V | 00:00:00 | 00:00:00 | 00:00:00 | |
| SP9KGR-15 | 2026-09-05 13:10:46 | -2.02832 | -54.06916 | 0° | 0km/h | 27m | 0.0m/s | -56.9°C | 26.6% | 217.0hPa | 2.7V | 00:00:00 | 00:00:00 | 00:00:00 | |
| SP9KGR-15 | 2026-09-05 13:10:30 | -2.02832 | -54.06916 | 0° | 0km/h | 27m | 0.0m/s | -57.9°C | 20.4% | 207.9hPa | 2.7V | 00:00:00 | 00:00:00 | 00:00:00 | |
| SQ9EZE-13 | 2026-09-05 13:10:28 | -2.02832 | -54.06916 | 0° | 0km/h | 27m | 0.0m/s | -58.1°C | 19.1% | 206.8hPa | 2.7V | 00:00:00 | 00:00:00 | 00:00:00 | |
| GYPAP8-17 | 2026-09-05 13:10:25 | -2.02832 | -54.06916 | 0° | 0km/h | 27m | 0.0m/s | -58.2°C | 17.1% | 205.1hPa | 2.7V | 00:00:00 | 00:00:00 | 00:00:00 | |
| SQ9EZE-14 | 2026-09-05 13:10:19 | -2.02832 | -54.06916 | 0° | 0km/h | 27m | 0.0m/s | -58.0°C | 14.3% | 201.7hPa | 2.7V | 00:00:00 | 00:00:00 | 00:00:00 | |
| SP9KGR-15 | 2026-09-05 13:10:15 | -2.02832 | -54.06916 | 0° | 0km/h | 27m | 0.0m/s | -58.1°C | 13.0% | 199.5hPa | 2.7V | 00:00:00 | 00:00:00 | 00:00:00 | |
| SQ9EZE-13 | 2026-09-05 13:10:10 | -2.02832 | -54.06916 | 0° | 0km/h | 27m | 0.0m/s | -58.8°C | 11.6% | 196.7hPa | 2.7V | 00:00:00 | 00:00:00 | 00:00:00 | |
| SP9KGR-15 | 2026-09-05 13:09:59 | -2.02832 | -54.06916 | 0° | 0km/h | 27m | 0.0m/s | -57.5°C | 7.4% | 190.6hPa | 2.7V | 00:00:00 | 00:00:00 | 00:00:00 | |
| SQ9EZE-13 | 2026-09-05 13:09:51 | -2.02832 | -54.06916 | 0° | 0km/h | 27m | 0.0m/s | -57.2°C | 6.0% | 186.5hPa | 2.7V | 00:00:00 | 00:00:00 | 00:00:00 | |
| SP9KGR-15 | 2026-09-05 13:09:44 | -2.02832 | -54.06916 | 0° | 0km/h | 27m | 0.0m/s | -57.9°C | 4.5% | 182.5hPa | 2.7V | 00:00:00 | 00:00:00 | 00:00:00 | |
| GYPAP8-17 | 2026-09-05 13:09:41 | -2.02832 | -54.06916 | 0° | 0km/h | 27m | 0.0m/s | -57.5°C | 3.9% | 180.9hPa | 2.7V | 00:00:00 | 00:00:00 | 00:00:00 | |
| POL2MAQ | 2026-09-05 13:09:38 | -2.02832 | -54.06916 | 0° | 0km/h | 27m | 0.0m/s | 0°C | 0% | 0hPa | 2.7V | 00:00:00 | 00:00:00 | 00:00:00 | |
| SQ9EZE-13 | 2026-09-05 13:09:36 | -2.02832 | -54.06916 | 0° | 0km/h | 27m | 0.0m/s | -54.5°C | 2.8% | 178.2hPa | 2.7V | 00:00:00 | 00:00:00 | 00:00:00 | |
| SP9KGR-15 | 2026-09-05 13:09:28 | -2.02832 | -54.06916 | 0° | 0km/h | 27m | 0.0m/s | -54.0°C | 2.4% | 174.4hPa | 2.7V | 00:00:00 | 00:00:00 | 00:00:00 | |
| SQ9EZE-13 | 2026-09-05 13:09:20 | -2.02832 | -54.06916 | 0° | 0km/h | 27m | 0.0m/s | -52.8°C | 2.1% | 170.3hPa | 2.7V | 00:00:00 | 00:00:00 | 00:00:00 | |
| POL2MAQ | 2026-09-05 13:09:17 | -2.02832 | -54.06916 | 0° | 0km/h | 27m | 0.0m/s | 0°C | 0% | 0hPa | 2.7V | 00:00:00 | 00:00:00 | 00:00:00 | |
| SP9KGR-15 | 2026-09-05 13:09:12 | -2.02832 | -54.06916 | 0° | 0km/h | 27m | 0.0m/s | -52.2°C | 2.1% | 166.4hPa | 2.7V | 00:00:00 | 00:00:00 | 00:00:00 | |
| SQ9EZE-13 | 2026-09-05 13:09:04 | -2.02832 | -54.06916 | 0° | 0km/h | 27m | 0.0m/s | -52.1°C | 2.0% | 162.9hPa | 2.7V | 00:00:00 | 00:00:00 | 00:00:00 | |
| SP9KGR-15 | 2026-09-05 13:08:57 | -2.02832 | -54.06916 | 0° | 0km/h | 27m | 0.0m/s | -51.4°C | 1.9% | 159.9hPa | 2.7V | 00:00:00 | 00:00:00 | 00:00:00 | |
| GYPAP8-17 | 2026-09-05 13:08:56 | -2.02832 | -54.06916 | 0° | 0km/h | 27m | 0.0m/s | -51.4°C | 1.8% | 159.5hPa | 2.7V | 00:00:00 | 00:00:00 | 00:00:00 | |
| SQ9EZE-13 | 2026-09-05 13:08:47 | -2.02832 | -54.06916 | 0° | 0km/h | 27m | 0.0m/s | -52.1°C | 1.9% | 155.1hPa | 2.7V | 00:00:00 | 00:00:00 | 00:00:00 | |
| SP9KGR-15 | 2026-09-05 13:08:42 | -2.02832 | -54.06916 | 0° | 0km/h | 27m | 0.0m/s | -52.9°C | 1.9% | 152.9hPa | 2.7V | 00:00:00 | 00:00:00 | 00:00:00 | |
| POL2MAQ | 2026-09-05 13:08:35 | -2.02832 | -54.06916 | 0° | 0km/h | 27m | 0.0m/s | 0°C | 0% | 0hPa | 2.7V | 00:00:00 | 00:00:00 | 00:00:00 | |
| SQ9EZE-13 | 2026-09-05 13:08:32 | -2.02832 | -54.06916 | 0° | 0km/h | 27m | 0.0m/s | -54.3°C | 2.2% | 148.4hPa | 2.7V | 00:00:00 | 00:00:00 | 00:00:00 | |
| SP9KGR-15 | 2026-09-05 13:08:26 | -2.02832 | -54.06916 | 0° | 0km/h | 27m | 0.0m/s | -55.0°C | 2.2% | 145.8hPa | 2.7V | 00:00:00 | 00:00:00 | 00:00:00 | |
| SQ9EZE-13 | 2026-09-05 13:08:16 | -2.02832 | -54.06916 | 0° | 0km/h | 27m | 0.0m/s | -55.0°C | 2.3% | 141.7hPa | 2.7V | 00:00:00 | 00:00:00 | 00:00:00 | |
| SQ9EZE-14 | 2026-09-05 13:08:15 | -2.02832 | -54.06916 | 0° | 0km/h | 27m | 0.0m/s | -54.9°C | 2.3% | 141.2hPa | 2.7V | 00:00:00 | 00:00:00 | 00:00:00 | |
| SP9KGR-15 | 2026-09-05 13:08:10 | -2.02832 | -54.06916 | 0° | 0km/h | 27m | 0.0m/s | -55.4°C | 2.4% | 139.2hPa | 2.7V | 00:00:00 | 00:00:00 | 00:00:00 | |
| GYPAP8-17 | 2026-09-05 13:08:10 | -2.02832 | -54.06916 | 0° | 0km/h | 27m | 0.0m/s | -55.4°C | 2.4% | 139.2hPa | 2.7V | 00:00:00 | 00:00:00 | 00:00:00 | |
| SQ9EZE-13 | 2026-09-05 13:08:00 | -2.02832 | -54.06916 | 0° | 0km/h | 27m | 0.0m/s | -54.4°C | 2.1% | 135.2hPa | 2.7V | 00:00:00 | 00:00:00 | 00:00:00 | |
| SQ9EZE-14 | 2026-09-05 13:07:59 | -2.02832 | -54.06916 | 0° | 0km/h | 27m | 0.0m/s | -54.4°C | 2.1% | 134.7hPa | 2.7V | 00:00:00 | 00:00:00 | 00:00:00 | |
| SP9KGR-15 | 2026-09-05 13:07:55 | -2.02832 | -54.06916 | 0° | 0km/h | 27m | 0.0m/s | -54.0°C | 2.1% | 133.1hPa | 2.7V | 00:00:00 | 00:00:00 | 00:00:00 | |
| SQ9EZE-13 | 2026-09-05 13:07:45 | -2.02832 | -54.06916 | 0° | 0km/h | 27m | 0.0m/s | -54.1°C | 2.0% | 129.5hPa | 2.7V | 00:00:00 | 00:00:00 | 00:00:00 | |
| SP9KGR-15 | 2026-09-05 13:07:39 | -2.02832 | -54.06916 | 0° | 0km/h | 27m | 0.0m/s | -55.2°C | 2.1% | 127.1hPa | 2.7V | 00:00:00 | 00:00:00 | 00:00:00 | |
| SQ9EZE-13 | 2026-09-05 13:07:29 | -2.02832 | -54.06916 | 0° | 0km/h | 27m | 0.0m/s | -55.5°C | 2.2% | 123.4hPa | 2.7V | 00:00:00 | 00:00:00 | 00:00:00 | |
| SP9KGR-15 | 2026-09-05 13:07:23 | -2.02832 | -54.06916 | 0° | 0km/h | 27m | 0.0m/s | -55.5°C | 2.2% | 121.0hPa | 2.7V | 00:00:00 | 00:00:00 | 00:00:00 | |
| GYPAP8-17 | 2026-09-05 13:07:23 | -2.02832 | -54.06916 | 0° | 0km/h | 27m | 0.0m/s | -55.5°C | 2.2% | 121.0hPa | 2.7V | 00:00:00 | 00:00:00 | 00:00:00 | |
| SQ9EZE-13 | 2026-09-05 13:07:13 | -2.02832 | -54.06916 | 0° | 0km/h | 27m | 0.0m/s | -55.1°C | 2.0% | 117.4hPa | 2.7V | 00:00:00 | 00:00:00 | 00:00:00 | |
| SP9KGR-15 | 2026-09-05 13:07:07 | -1.80064 | -53.64749 | 0° | 0km/h | 21m | 0.0m/s | -53.8°C | 1.8% | 115.3hPa | 2.7V | 00:00:00 | 00:00:00 | 00:00:00 | |
| SQ9EZE-13 | 2026-09-05 13:06:57 | -1.72510 | -53.65808 | 0° | 0km/h | 19m | 0.0m/s | -54.1°C | 1.8% | 111.6hPa | 2.7V | 00:00:00 | 00:00:00 | 00:00:00 | |
| SP9KGR-15 | 2026-09-05 13:06:52 | -1.68733 | -53.66338 | 0° | 0km/h | 18m | 0.0m/s | -54.3°C | 1.8% | 109.9hPa | 2.7V | 00:00:00 | 00:00:00 | 00:00:00 | |
| SQ9EZE-13 | 2026-09-05 13:06:41 | -21.99851 | -61.66327 | 0° | 0km/h | 2979m | 0.0m/s | -54.4°C | 1.8% | 106.0hPa | 2.7V | 00:00:00 | 00:00:00 | 00:00:00 | |
| SP9KGR-15 | 2026-09-05 13:06:37 | -30.38781 | -52.01725 | 0° | 0km/h | 5438m | 0.0m/s | -54.7°C | 1.7% | 104.2hPa | 2.7V | 00:00:00 | 00:00:00 | 00:00:00 | |
| SQ9EZE-13 | 2026-09-05 13:06:25 | -23.35495 | -43.32366 | 0° | 0km/h | 3337m | 0.0m/s | -55.4°C | 1.8% | 99.8hPa | 2.7V | 00:00:00 | 00:00:00 | 00:00:00 | |
| SQ9EZE-13 | 2026-09-05 12:59:13 | -9.28569 | -74.79137 | 0° | 0km/h | 552m | 0.0m/s | -44.9°C | 0.9% | 15.4hPa | 2.7V | 00:00:00 | 00:00:00 | 00:00:00 | |
| SQ9EZE-14 | 2026-09-05 12:58:59 | -12.04798 | -77.04688 | 254° | 199km/h | 988m | 0.1m/s | -45.2°C | 1.0% | 14.2hPa | 2.7V | 00:00:00 | 00:00:00 | 00:00:00 | |
| SQ9EZE-13 | 2026-09-05 12:58:54 | -9.28569 | -74.79137 | 0° | 0km/h | 552m | 0.0m/s | -45.8°C | 1.1% | 13.8hPa | 2.7V | 00:00:00 | 00:00:00 | 00:00:00 | |
| SQ9EZE-13 | 2026-09-05 12:58:39 | -9.28569 | -74.79137 | 0° | 0km/h | 552m | 0.0m/s | -42.7°C | 0.9% | 12.5hPa | 2.7V | 00:00:00 | 00:00:00 | 00:00:00 | |
| GYPAP8-17 | 2026-09-05 12:58:38 | -12.04634 | -77.05569 | 0° | 0km/h | 986m | 0.0m/s | -42.6°C | 0.9% | 12.5hPa | 2.7V | 00:00:00 | 00:00:00 | 00:00:00 | |
| SQ9EZE-13 | 2026-09-05 12:58:23 | -9.28569 | -74.79137 | 0° | 0km/h | 552m | 0.0m/s | -40.4°C | 0.8% | 11.3hPa | 2.7V | 00:00:00 | 00:00:00 | 00:00:00 | |
| SQ9EZE-13 | 2026-09-05 12:58:05 | -10.20207 | -74.96099 | 0° | 0km/h | 665m | 0.0m/s | -40.5°C | 0.8% | 10.1hPa | 2.7V | 00:00:00 | 00:00:00 | 00:00:00 | |
| SQ9EZE-13 | 2026-09-05 12:57:49 | -10.32609 | -74.59229 | 0° | 0km/h | 682m | 0.0m/s | -41.8°C | 0.9% | 9.2hPa | 2.7V | 00:00:00 | 00:00:00 | 00:00:00 | |
| GYPAP8-17 | 2026-09-05 12:57:37 | -12.04634 | -77.05569 | 0° | 0km/h | 986m | 0.0m/s | -40.3°C | 0.9% | 8.5hPa | 2.7V | 00:00:00 | 00:00:00 | 00:00:00 | |
| SQ9EZE-13 | 2026-09-05 12:57:34 | -10.32609 | -74.59229 | 0° | 0km/h | 682m | 0.0m/s | -39.3°C | 0.8% | 8.3hPa | 2.7V | 00:00:00 | 00:00:00 | 00:00:00 | |
| LZ4TU-5 | 2026-09-05 12:57:29 | -12.03507 | -77.05766 | 29° | 199km/h | 980m | -0.1m/s | 0°C | 0% | 0hPa | 2.7V | 00:00:00 | 00:00:00 | 00:00:00 | |
| SQ9EZE-13 | 2026-09-05 12:57:08 | -12.04634 | -77.05569 | 0° | 0km/h | 986m | 0.0m/s | -35.1°C | 0.6% | 6.9hPa | 2.7V | 00:00:00 | 00:00:00 | 00:00:00 | |
| SQ9EZE-14 | 2026-09-05 12:56:58 | -12.04798 | -77.04688 | 254° | 199km/h | 988m | 0.1m/s | -35.2°C | 0.6% | 6.8hPa | 2.7V | 00:00:00 | 00:00:00 | 00:00:00 | |
| SQ9EZE-13 | 2026-09-05 12:56:52 | -12.04634 | -77.05569 | 0° | 0km/h | 986m | 0.0m/s | -35.4°C | 0.6% | 6.9hPa | 2.7V | 00:00:00 | 00:00:00 | 00:00:00 | |
| SQ9EZE-13 | 2026-09-05 12:56:36 | -12.04634 | -77.05569 | 0° | 0km/h | 986m | 0.0m/s | -35.5°C | 0.6% | 7.0hPa | 2.7V | 00:00:00 | 00:00:00 | 00:00:00 | |
| S52SK | 2026-09-05 12:56:35 | -12.04634 | -77.05569 | 0° | 0km/h | 986m | 0.0m/s | 0°C | 0% | 0hPa | 2.7V | 00:00:00 | 00:00:00 | 00:00:00 | |
| SQ9EZE-13 | 2026-09-05 12:56:21 | -12.04634 | -77.05569 | 0° | 0km/h | 986m | 0.0m/s | -35.4°C | 0.6% | 7.1hPa | 2.7V | 00:00:00 | 00:00:00 | 00:00:00 | |
| GYPAP8-17 | 2026-09-05 12:56:14 | -12.04287 | -77.06019 | 0° | 0km/h | 989m | 0.0m/s | -35.4°C | 0.6% | 7.1hPa | 2.7V | 00:00:00 | 00:00:00 | 00:00:00 | |
| HA6NAB-11 | 2026-09-05 12:56:10 | -12.03083 | -77.05260 | 72° | 199km/h | 987m | -0.0m/s | 0°C | 0% | 0hPa | 2.7V | 00:00:00 | 00:00:00 | 00:00:00 | |
| SQ9EZE-13 | 2026-09-05 12:56:06 | -12.04634 | -77.05569 | 0° | 0km/h | 986m | 0.0m/s | -35.9°C | 0.6% | 7.2hPa | 2.7V | 00:00:00 | 00:00:00 | 00:00:00 | |
| SQ9EZE-13 | 2026-09-05 12:55:50 | -12.04287 | -77.06019 | 0° | 0km/h | 989m | 0.0m/s | -35.7°C | 0.6% | 7.3hPa | 2.7V | 00:00:00 | 00:00:00 | 00:00:00 | |
| SQ9EZE-13 | 2026-09-05 12:55:35 | -12.04287 | -77.06019 | 0° | 0km/h | 989m | 0.0m/s | -36.0°C | 0.6% | 7.4hPa | 2.7V | 00:00:00 | 00:00:00 | 00:00:00 | |
| GYPAP8-17 | 2026-09-05 12:55:29 | -12.04439 | -77.05822 | 309° | 193km/h | 988m | 0.3m/s | -36.0°C | 0.6% | 7.4hPa | 2.7V | 00:00:00 | 00:00:00 | 00:00:00 | |
| OE5DRO-10 | 2026-09-05 12:55:20 | -12.04742 | -77.05391 | 295° | 201km/h | 983m | -0.9m/s | 0°C | 0% | 0hPa | 2.7V | 00:00:00 | 00:00:00 | 00:00:00 | |
| SQ9EZE-13 | 2026-09-05 12:55:19 | -12.04742 | -77.05391 | 295° | 204km/h | 983m | -0.9m/s | -36.5°C | 0.6% | 7.5hPa | 2.7V | 00:00:00 | 00:00:00 | 00:00:00 | |
| OE5DRO-10 | 2026-09-05 12:55:16 | -12.04814 | -77.05197 | 285° | 199km/h | 982m | -1.4m/s | 0°C | 0% | 0hPa | 2.7V | 00:00:00 | 00:00:00 | 00:00:00 | |
| SQ9EZE-13 | 2026-09-05 12:55:03 | -12.04764 | -77.04591 | 247° | 199km/h | 984m | 0.7m/s | -37.5°C | 0.7% | 7.6hPa | 2.7V | 00:00:00 | 00:00:00 | 00:00:00 | |
| S52SK | 2026-09-05 12:55:03 | -12.04764 | -77.04591 | 247° | 199km/h | 984m | 0.7m/s | 0°C | 0% | 0hPa | 2.7V | 00:00:00 | 00:00:00 | 00:00:00 | |
| OE5DRO-10 | 2026-09-05 12:54:58 | -12.04602 | -77.04334 | 227° | 199km/h | 984m | -0.4m/s | 0°C | 0% | 0hPa | 2.7V | 00:00:00 | 00:00:00 | 00:00:00 | |
| S52SK | 2026-09-05 12:54:57 | -12.04602 | -77.04334 | 228° | 199km/h | 984m | -0.5m/s | 0°C | 0% | 0hPa | 2.7V | 00:00:00 | 00:00:00 | 00:00:00 | |
| SQ9EZE-14 | 2026-09-05 12:54:55 | -12.04527 | -77.04263 | 222° | 199km/h | 986m | -0.0m/s | -37.9°C | 0.7% | 7.7hPa | 2.7V | 00:00:00 | 00:00:00 | 00:00:00 | |
| SQ9EZE-13 | 2026-09-05 12:54:48 | -12.04221 | -77.04086 | 200° | 199km/h | 986m | 0.0m/s | -38.0°C | 0.7% | 7.7hPa | 2.7V | 00:00:00 | 00:00:00 | 00:00:00 | |
| OE5DRO-10 | 2026-09-05 12:54:47 | -12.04123 | -77.04056 | 193° | 197km/h | 986m | -0.5m/s | 0°C | 0% | 0hPa | 2.7V | 00:00:00 | 00:00:00 | 00:00:00 | |
| GYPAP8-17 | 2026-09-05 12:54:45 | -12.04073 | -77.04048 | 185° | 193km/h | 986m | -0.0m/s | -38.1°C | 0.7% | 7.7hPa | 2.7V | 00:00:00 | 00:00:00 | 00:00:00 | |
| OE5DRO-10 | 2026-09-05 12:54:44 | -12.03973 | -77.04038 | 182° | 199km/h | 986m | -0.7m/s | 0°C | 0% | 0hPa | 2.7V | 00:00:00 | 00:00:00 | 00:00:00 | |
| SQ9EZE-14 | 2026-09-05 12:54:40 | -12.03821 | -77.04047 | 174° | 199km/h | 987m | 0.1m/s | -38.2°C | 0.7% | 7.8hPa | 2.7V | 00:00:00 | 00:00:00 | 00:00:00 | |
| OE5DRO-10 | 2026-09-05 12:54:40 | -12.03772 | -77.04054 | 170° | 199km/h | 986m | 0.3m/s | 0°C | 0% | 0hPa | 2.7V | 00:00:00 | 00:00:00 | 00:00:00 | |
| SQ9EZE-13 | 2026-09-05 12:54:32 | -12.03445 | -77.04186 | 148° | 199km/h | 986m | 0.1m/s | -38.5°C | 0.7% | 7.8hPa | 2.7V | 00:00:00 | 00:00:00 | 00:00:00 | |
| OE5DRO-10 | 2026-09-05 12:54:12 | -12.03047 | -77.05121 | 80° | 199km/h | 985m | -0.0m/s | 0°C | 0% | 0hPa | 2.7V | 00:00:00 | 00:00:00 | 00:00:00 | |
| SQ9EZE-13 | 2026-09-05 12:54:07 | -12.03106 | -77.05316 | 68° | 199km/h | 983m | 2.8m/s | -39.5°C | 0.7% | 8.0hPa | 2.7V | 00:00:00 | 00:00:00 | 00:00:00 | |
| LZ4TU-5 | 2026-09-05 12:53:55 | -12.03507 | -77.05766 | 29° | 199km/h | 980m | -0.1m/s | 0°C | 0% | 0hPa | 2.7V | 00:00:00 | 00:00:00 | 00:00:00 | |
| GYPAP8-17 | 2026-09-05 12:53:40 | -12.04242 | -77.05820 | 341° | 197km/h | 992m | -0.2m/s | -40.2°C | 0.7% | 8.2hPa | 2.7V | 00:00:00 | 00:00:00 | 00:00:00 | |
| OE5DRO-10 | 2026-09-05 12:53:40 | -12.04288 | -77.05801 | 338° | 197km/h | 992m | -0.8m/s | 0°C | 0% | 0hPa | 2.7V | 00:00:00 | 00:00:00 | 00:00:00 | |
| GYPAP8-17 | 2026-09-05 12:52:31 | -12.03145 | -77.04515 | 120° | 199km/h | 988m | -0.3m/s | -41.6°C | 0.8% | 8.8hPa | 2.7V | 00:00:00 | 00:00:00 | 00:00:00 | |
| HA6NAB-11 | 2026-09-05 12:52:16 | -12.03083 | -77.05260 | 72° | 199km/h | 987m | -0.0m/s | 0°C | 0% | 0hPa | 2.7V | 00:00:00 | 00:00:00 | 00:00:00 | |
| SQ9EZE-13 | 2026-09-05 12:52:10 | -12.03230 | -77.05529 | 52° | 199km/h | 987m | 0.1m/s | -41.8°C | 0.8% | 9.0hPa | 2.7V | 00:00:00 | 00:00:00 | 00:00:00 | |
| SQ9EZE-13 | 2026-09-05 12:51:40 | -11.95532 | -71.55901 | 0° | 0km/h | 910m | 0.0m/s | -41.8°C | 0.9% | 9.3hPa | 2.7V | 00:00:00 | 00:00:00 | 00:00:00 | |
| SQ9EZE-13 | 2026-09-05 12:51:24 | -16.73242 | -81.47478 | 0° | 0km/h | 1759m | 0.0m/s | -41.4°C | 0.8% | 9.4hPa | 2.7V | 00:00:00 | 00:00:00 | 00:00:00 | |
| SQ9EZE-14 | 2026-09-05 12:51:24 | -16.73242 | -81.47478 | 0° | 0km/h | 1759m | 0.0m/s | -41.4°C | 0.8% | 9.4hPa | 2.7V | 00:00:00 | 00:00:00 | 00:00:00 | |
| LZ4TU-5 | 2026-09-05 12:51:12 | -21.28240 | -72.50392 | 0° | 0km/h | 2797m | 0.0m/s | 0°C | 0% | 0hPa | 2.7V | 00:00:00 | 00:00:00 | 00:00:00 | |
| SQ9EZE-14 | 2026-09-05 12:51:09 | -20.56752 | -74.53421 | 0° | 0km/h | 2620m | 0.0m/s | -41.0°C | 0.8% | 9.6hPa | 2.7V | 00:00:00 | 00:00:00 | 00:00:00 | |
| LZ4TU-5 | 2026-09-05 12:51:08 | -20.73127 | -74.46647 | 0° | 0km/h | 2660m | 0.0m/s | 0°C | 0% | 0hPa | 2.7V | 00:00:00 | 00:00:00 | 00:00:00 | |
| S52SK | 2026-09-05 12:51:03 | -22.59582 | -72.82328 | 0° | 0km/h | 3135m | 0.0m/s | 0°C | 0% | 0hPa | 2.7V | 00:00:00 | 00:00:00 | 00:00:00 | |
| SQ9EZE-13 | 2026-09-05 12:50:38 | -31.49477 | -65.21962 | 0° | 0km/h | 5801m | 0.0m/s | -40.5°C | 0.8% | 9.9hPa | 2.7V | 00:00:00 | 00:00:00 | 00:00:00 | |
| SQ9EZE-13 | 2026-09-05 12:50:22 | -22.52746 | -78.83555 | 0° | 0km/h | 3117m | 0.0m/s | -40.3°C | 0.8% | 10.0hPa | 2.7V | 00:00:00 | 00:00:00 | 00:00:00 | |
| SQ9EZE-13 | 2026-09-05 12:50:07 | -22.52746 | -78.83555 | 0° | 0km/h | 3117m | 0.0m/s | -40.8°C | 0.8% | 10.2hPa | 2.7V | 00:00:00 | 00:00:00 | 00:00:00 | |
| SQ9EZE-13 | 2026-09-05 12:49:51 | -22.53379 | -78.87535 | 0° | 0km/h | 3118m | 0.0m/s | -40.6°C | 0.8% | 10.4hPa | 2.7V | 00:00:00 | 00:00:00 | 00:00:00 | |
| GYPAP8-17 | 2026-09-05 12:49:43 | -28.41743 | -67.88895 | 0° | 0km/h | 4812m | 0.0m/s | -40.2°C | 0.8% | 10.4hPa | 2.7V | 00:00:00 | 00:00:00 | 00:00:00 | |
| SQ9EZE-13 | 2026-09-05 12:49:35 | -23.02024 | -65.20207 | 0° | 0km/h | 3247m | 0.0m/s | -40.0°C | 0.8% | 10.5hPa | 2.7V | 00:00:00 | 00:00:00 | 00:00:00 | |
| SQ9EZE-13 | 2026-09-05 12:49:20 | 6.08883 | -39.45395 | 0° | 0km/h | 239m | 0.0m/s | -40.4°C | 0.8% | 10.7hPa | 2.7V | 00:00:00 | 00:00:00 | 00:00:00 | |
| SQ9EZE-14 | 2026-09-05 12:49:05 | -23.73362 | -47.79664 | 0° | 0km/h | 3440m | 0.0m/s | -40.0°C | 0.8% | 10.8hPa | 2.7V | 00:00:00 | 00:00:00 | 00:00:00 | |
| SQ9EZE-13 | 2026-09-05 12:49:04 | -20.18163 | -46.32819 | 0° | 0km/h | 2526m | 0.0m/s | -40.0°C | 0.8% | 10.8hPa | 2.7V | 00:00:00 | 00:00:00 | 00:00:00 | |
| S52SK | 2026-09-05 12:48:59 | -41.09137 | -61.27799 | 0° | 0km/h | 9194m | 0.0m/s | 0°C | 0% | 0hPa | 2.7V | 00:00:00 | 00:00:00 | 00:00:00 | |
| SQ9EZE-14 | 2026-09-05 12:48:49 | -10.24859 | -48.40890 | 0° | 0km/h | 671m | 0.0m/s | -40.0°C | 0.8% | 11.0hPa | 2.7V | 00:00:00 | 00:00:00 | 00:00:00 | |
| SQ9EZE-13 | 2026-09-05 12:48:49 | -10.24859 | -48.40890 | 0° | 0km/h | 671m | 0.0m/s | -40.0°C | 0.8% | 11.0hPa | 2.7V | 00:00:00 | 00:00:00 | 00:00:00 | |
| GYPAP8-17 | 2026-09-05 12:48:39 | -23.01569 | -50.61280 | 0° | 0km/h | 3246m | 0.0m/s | -40.0°C | 0.8% | 11.1hPa | 2.7V | 00:00:00 | 00:00:00 | 00:00:00 | |
| SQ9EZE-13 | 2026-09-05 12:48:33 | 50.07831 | -20.77898 | 0° | 0km/h | 12534m | 0.0m/s | -40.4°C | 0.8% | 11.2hPa | 2.7V | 00:00:00 | 00:00:00 | 00:00:00 | |
| LZ4TU-5 | 2026-09-05 12:48:22 | 50.33995 | -20.70547 | 0° | 0km/h | 12631m | 0.0m/s | 0°C | 0% | 0hPa | 2.7V | 00:00:00 | 00:00:00 | 00:00:00 | |
| SQ9EZE-13 | 2026-09-05 12:48:17 | 38.45373 | -38.00717 | 0° | 0km/h | 8228m | 0.0m/s | -40.6°C | 0.8% | 11.3hPa | 2.7V | 00:00:00 | 00:00:00 | 00:00:00 | |
| GYPAP8-17 | 2026-09-05 12:47:35 | -33.09368 | -55.42907 | 0° | 0km/h | 6338m | 0.0m/s | -42.4°C | 0.8% | 11.8hPa | 2.7V | 00:00:00 | 00:00:00 | 00:00:00 | |
| SQ9EZE-13 | 2026-09-05 12:45:48 | -35.29544 | -45.00000 | 0° | 0km/h | 30824m | 0.0m/s | -45.6°C | 1.0% | 13.1hPa | 2.7V | 00:00:00 | 00:00:00 | 00:00:00 | |
| SQ9EZE-13 | 2026-09-05 12:45:33 | -35.29544 | -135.00000 | 0° | 0km/h | 30824m | -0.0m/s | -46.2°C | 1.0% | 13.3hPa | 2.7V | 00:00:00 | 00:00:00 | 00:00:00 | |
| GYPAP8-17 | 2026-09-05 12:45:17 | -35.29544 | -135.00000 | 0° | 0km/h | 30824m | -0.0m/s | -46.1°C | 1.1% | 13.6hPa | 2.7V | 00:00:00 | 00:00:00 | 00:00:00 | |
| LZ4TU-5 | 2026-09-05 12:45:04 | -35.29544 | -45.00000 | 0° | 0km/h | 30824m | 0.0m/s | 0°C | 0% | 0hPa | 2.7V | 00:00:00 | 00:00:00 | 00:00:00 | |
| SQ9EZE-13 | 2026-09-05 12:45:01 | -35.29544 | -45.00000 | 0° | 0km/h | 30824m | 0.0m/s | -45.6°C | 1.0% | 13.7hPa | 2.7V | 00:00:00 | 00:00:00 | 00:00:00 | |
| LZ4TU-5 | 2026-09-05 12:44:55 | 35.29544 | 135.00000 | 0° | 0km/h | 30824m | 0.0m/s | 0°C | 0% | 0hPa | 2.7V | 00:00:00 | 00:00:00 | 00:00:00 | |
| SQ9EZE-13 | 2026-09-05 12:44:45 | 35.29544 | -135.00000 | 0° | 0km/h | 30824m | 0.0m/s | -45.4°C | 1.0% | 14.0hPa | 2.7V | 00:00:00 | 00:00:00 | 00:00:00 | |
| SQ9EZE-13 | 2026-09-05 12:43:11 | -12.03847 | -77.06037 | 338° | 201km/h | 975m | -2.1m/s | -44.7°C | 1.0% | 15.4hPa | 2.7V | 00:00:00 | 00:00:00 | 00:00:00 | |
| SQ9EZE-13 | 2026-09-05 12:42:55 | -12.04553 | -77.05644 | 315° | 199km/h | 986m | -0.0m/s | -44.9°C | 1.0% | 15.6hPa | 2.7V | 00:00:00 | 00:00:00 | 00:00:00 | |
| GYPAP8-17 | 2026-09-05 12:42:21 | -12.04282 | -77.04173 | 206° | 199km/h | 989m | 0.0m/s | -46.2°C | 1.0% | 16.1hPa | 2.7V | 00:00:00 | 00:00:00 | 00:00:00 | |
| SQ9EZE-13 | 2026-09-05 12:41:25 | -12.03521 | -77.05843 | 26° | 199km/h | 984m | 1.2m/s | -46.8°C | 1.1% | 17.0hPa | 2.7V | 00:00:00 | 00:00:00 | 00:00:00 | |
| OE5DRO-10 | 2026-09-05 12:41:13 | -12.04115 | -77.05908 | 347° | 199km/h | 980m | -0.5m/s | 0°C | 0% | 0hPa | 2.7V | 00:00:00 | 00:00:00 | 00:00:00 | |
| LZ4TU-5 | 2026-09-05 12:41:12 | -12.04164 | -77.05895 | 345° | 199km/h | 981m | 0.0m/s | 0°C | 0% | 0hPa | 2.7V | 00:00:00 | 00:00:00 | 00:00:00 | |
| GYPAP8-17 | 2026-09-05 12:41:11 | -12.04212 | -77.05880 | 341° | 199km/h | 981m | 0.2m/s | -46.5°C | 1.1% | 17.3hPa | 2.7V | 00:00:00 | 00:00:00 | 00:00:00 | |
| LZ4TU-5 | 2026-09-05 12:41:07 | -12.04394 | -77.05789 | 328° | 199km/h | 978m | -0.2m/s | 0°C | 0% | 0hPa | 2.7V | 00:00:00 | 00:00:00 | 00:00:00 | |
| SQ9EZE-13 | 2026-09-05 12:41:03 | -12.04552 | -77.05660 | 316° | 199km/h | 983m | 0.3m/s | -46.8°C | 1.1% | 17.4hPa | 2.7V | 00:00:00 | 00:00:00 | 00:00:00 | |
| OE5DRO-10 | 2026-09-05 12:41:00 | -12.04648 | -77.05541 | 305° | 199km/h | 982m | -0.5m/s | 0°C | 0% | 0hPa | 2.7V | 00:00:00 | 00:00:00 | 00:00:00 | |
| OE5DRO-10 | 2026-09-05 12:40:53 | -12.04790 | -77.05214 | 283° | 199km/h | 978m | -0.5m/s | 0°C | 0% | 0hPa | 2.7V | 00:00:00 | 00:00:00 | 00:00:00 | |
| SQ9EZE-13 | 2026-09-05 12:40:47 | -12.04805 | -77.04906 | 265° | 199km/h | 978m | -0.3m/s | -47.3°C | 1.1% | 17.7hPa | 2.7V | 00:00:00 | 00:00:00 | 00:00:00 | |
| OE5DRO-10 | 2026-09-05 12:40:42 | -12.04740 | -77.04658 | 248° | 199km/h | 976m | 0.0m/s | 0°C | 0% | 0hPa | 2.7V | 00:00:00 | 00:00:00 | 00:00:00 | |
| SQ9EZE-13 | 2026-09-05 12:40:31 | -12.04383 | -77.04234 | 213° | 199km/h | 974m | 0.1m/s | -47.9°C | 1.2% | 18.0hPa | 2.7V | 00:00:00 | 00:00:00 | 00:00:00 | |
| SQ9EZE-13 | 2026-09-05 12:40:16 | -12.03654 | -77.04131 | 165° | 199km/h | 973m | -0.5m/s | -47.4°C | 1.1% | 18.2hPa | 2.7V | 00:00:00 | 00:00:00 | 00:00:00 | |
| GYPAP8-17 | 2026-09-05 12:40:02 | -12.03117 | -77.04568 | 120° | 197km/h | 969m | -0.2m/s | -47.3°C | 1.1% | 18.5hPa | 2.7V | 00:00:00 | 00:00:00 | 00:00:00 | |
| SQ9EZE-13 | 2026-09-05 12:40:00 | -12.03075 | -77.04660 | 114° | 199km/h | 967m | 0.3m/s | -47.5°C | 1.1% | 18.5hPa | 2.7V | 00:00:00 | 00:00:00 | 00:00:00 | |
| SQ9EZE-13 | 2026-09-05 12:39:45 | -12.03093 | -77.05410 | 66° | 199km/h | 973m | -0.1m/s | -48.0°C | 1.1% | 18.8hPa | 2.7V | 00:00:00 | 00:00:00 | 00:00:00 | |
| SQ9EZE-13 | 2026-09-05 12:39:29 | -12.03703 | -77.05911 | 14° | 199km/h | 976m | 0.0m/s | -47.6°C | 1.1% | 19.1hPa | 2.7V | 00:00:00 | 00:00:00 | 00:00:00 | |
| SQ9EZE-13 | 2026-09-05 12:39:13 | -12.04469 | -77.05734 | 323° | 199km/h | 978m | -0.1m/s | -47.4°C | 1.1% | 19.4hPa | 2.7V | 00:00:00 | 00:00:00 | 00:00:00 | |
| SQ9EZE-14 | 2026-09-05 12:39:03 | -12.04758 | -77.05322 | 291° | 199km/h | 978m | -0.2m/s | -47.2°C | 1.1% | 19.5hPa | 2.7V | 00:00:00 | 00:00:00 | 00:00:00 | |
| SQ9EZE-13 | 2026-09-05 12:38:58 | -12.04812 | -77.05072 | 274° | 199km/h | 981m | 0.1m/s | -47.1°C | 1.1% | 19.6hPa | 2.7V | 00:00:00 | 00:00:00 | 00:00:00 | |
| GYPAP8-17 | 2026-09-05 12:38:50 | -12.04747 | -77.04668 | 249° | 199km/h | 981m | -0.5m/s | -47.2°C | 1.1% | 19.8hPa | 2.7V | 00:00:00 | 00:00:00 | 00:00:00 | |
| SQ9EZE-14 | 2026-09-05 12:38:48 | -12.04703 | -77.04575 | 242° | 199km/h | 979m | 0.6m/s | -47.1°C | 1.1% | 19.8hPa | 2.7V | 00:00:00 | 00:00:00 | 00:00:00 | |
| SQ9EZE-13 | 2026-09-05 12:38:42 | -12.04514 | -77.04333 | 223° | 199km/h | 976m | 0.1m/s | -46.7°C | 1.1% | 19.9hPa | 2.7V | 00:00:00 | 00:00:00 | 00:00:00 | |
| SQ9EZE-13 | 2026-09-05 12:38:27 | -12.03814 | -77.04101 | 175° | 199km/h | 976m | 0.1m/s | -46.5°C | 1.0% | 20.2hPa | 2.7V | 00:00:00 | 00:00:00 | 00:00:00 | |
| SQ9EZE-13 | 2026-09-05 12:38:12 | -12.03174 | -77.04475 | 127° | 199km/h | 977m | 0.2m/s | -46.7°C | 1.1% | 20.5hPa | 2.7V | 00:00:00 | 00:00:00 | 00:00:00 | |
| SQ9EZE-13 | 2026-09-05 12:37:56 | -12.03032 | -77.05256 | 75° | 199km/h | 980m | -0.1m/s | -47.4°C | 1.1% | 20.8hPa | 2.7V | 00:00:00 | 00:00:00 | 00:00:00 | |
| SQ9EZE-13 | 2026-09-05 12:37:41 | -12.03503 | -77.05835 | 27° | 199km/h | 977m | 0.1m/s | -47.7°C | 1.1% | 21.1hPa | 2.7V | 00:00:00 | 00:00:00 | 00:00:00 | |
| GYPAP8-17 | 2026-09-05 12:37:37 | -12.03692 | -77.05905 | 15° | 199km/h | 979m | -0.7m/s | -47.9°C | 1.1% | 21.2hPa | 2.7V | 00:00:00 | 00:00:00 | 00:00:00 | |
| SQ9EZE-13 | 2026-09-05 12:37:26 | -12.04241 | -77.05869 | 339° | 199km/h | 979m | 0.1m/s | -47.9°C | 1.1% | 21.4hPa | 2.7V | 00:00:00 | 00:00:00 | 00:00:00 | |
| SQ9EZE-13 | 2026-09-05 12:37:11 | -12.04759 | -77.05333 | 291° | 199km/h | 982m | 0.1m/s | -47.9°C | 1.1% | 21.7hPa | 2.7V | 00:00:00 | 00:00:00 | 00:00:00 | |
| SQ9EZE-13 | 2026-09-05 12:36:55 | -12.04684 | -77.04540 | 240° | 199km/h | 981m | 0.2m/s | -48.3°C | 1.1% | 22.0hPa | 2.7V | 00:00:00 | 00:00:00 | 00:00:00 | |
| SQ9EZE-13 | 2026-09-05 12:36:24 | -12.03318 | -77.04315 | 141° | 197km/h | 980m | 0.5m/s | -48.4°C | 1.2% | 22.6hPa | 2.7V | 00:00:00 | 00:00:00 | 00:00:00 | |
| SQ9EZE-14 | 2026-09-05 12:36:16 | -12.03079 | -77.04642 | 115° | 199km/h | 978m | -0.1m/s | -48.0°C | 1.1% | 22.8hPa | 2.7V | 00:00:00 | 00:00:00 | 00:00:00 | |
| GYPAP8-17 | 2026-09-05 12:36:15 | -12.03060 | -77.04690 | 111° | 199km/h | 978m | 0.0m/s | -48.0°C | 1.1% | 22.8hPa | 2.7V | 00:00:00 | 00:00:00 | 00:00:00 | |
| SQ9EZE-13 | 2026-09-05 12:36:08 | -12.03003 | -77.05042 | 89° | 199km/h | 977m | -0.2m/s | -48.1°C | 1.1% | 23.0hPa | 2.7V | 00:00:00 | 00:00:00 | 00:00:00 | |
| SQ9EZE-14 | 2026-09-05 12:36:00 | -12.03106 | -77.05437 | 63° | 199km/h | 975m | -0.0m/s | -48.5°C | 1.2% | 23.2hPa | 2.7V | 00:00:00 | 00:00:00 | 00:00:00 | |
| SQ9EZE-13 | 2026-09-05 12:35:53 | -12.03328 | -77.05714 | 41° | 199km/h | 976m | -0.4m/s | -48.3°C | 1.2% | 23.3hPa | 2.7V | 00:00:00 | 00:00:00 | 00:00:00 | |
| SQ9EZE-14 | 2026-09-05 12:35:45 | -12.03686 | -77.05899 | 15° | 199km/h | 975m | 0.0m/s | -48.0°C | 1.2% | 23.5hPa | 2.7V | 00:00:00 | 00:00:00 | 00:00:00 | |
| SQ9EZE-13 | 2026-09-05 12:35:33 | -12.04280 | -77.05849 | 337° | 199km/h | 982m | 0.0m/s | -47.7°C | 1.2% | 23.8hPa | 2.7V | 00:00:00 | 00:00:00 | 00:00:00 | |
| SQ9EZE-13 | 2026-09-05 12:35:16 | -12.04795 | -77.05191 | 282° | 199km/h | 979m | -0.1m/s | -47.7°C | 1.1% | 24.2hPa | 2.7V | 00:00:00 | 00:00:00 | 00:00:00 | |
| GYPAP8-17 | 2026-09-05 12:35:02 | -12.04660 | -77.04502 | 237° | 199km/h | 977m | -0.1m/s | -47.3°C | 1.2% | 24.5hPa | 2.7V | 00:00:00 | 00:00:00 | 00:00:00 | |
| SQ9EZE-13 | 2026-09-05 12:34:37 | -12.03543 | -77.04173 | 157° | 199km/h | 979m | -0.2m/s | -47.1°C | 1.1% | 25.1hPa | 2.7V | 00:00:00 | 00:00:00 | 00:00:00 | |
| SQ9EZE-13 | 2026-09-05 12:34:21 | -12.03044 | -77.04775 | 106° | 199km/h | 1001m | -0.1m/s | -47.6°C | 1.1% | 25.5hPa | 2.7V | 00:00:00 | 00:00:00 | 00:00:00 | |
| SQ9EZE-13 | 2026-09-05 12:34:05 | -12.03219 | -77.05579 | 54° | 199km/h | 1024m | -0.2m/s | -48.1°C | 1.1% | 25.8hPa | 2.7V | 00:00:00 | 00:00:00 | 00:00:00 | |
| GYPAP8-17 | 2026-09-05 12:33:54 | -12.03677 | -77.05911 | 19° | 199km/h | 1048m | 0.0m/s | -48.9°C | 1.1% | 26.1hPa | 2.7V | 00:00:00 | 00:00:00 | 00:00:00 | |
| SQ9EZE-13 | 2026-09-05 12:33:50 | -12.03875 | -77.05952 | 6° | 199km/h | 1053m | -0.0m/s | -49.3°C | 1.2% | 26.2hPa | 2.7V | 00:00:00 | 00:00:00 | 00:00:00 | |
| SQ9EZE-14 | 2026-09-05 12:33:44 | -12.04178 | -77.05930 | 347° | 199km/h | 1054m | -0.1m/s | -49.4°C | 1.2% | 26.3hPa | 2.7V | 00:00:00 | 00:00:00 | 00:00:00 | |
| SQ9EZE-13 | 2026-09-05 12:33:34 | -12.04611 | -77.05675 | 315° | 199km/h | 1054m | 0.1m/s | -49.5°C | 1.2% | 26.6hPa | 2.7V | 00:00:00 | 00:00:00 | 00:00:00 | |
| SQ9EZE-14 | 2026-09-05 12:33:28 | -12.04784 | -77.05422 | 296° | 199km/h | 1054m | 0.4m/s | -49.3°C | 1.2% | 26.7hPa | 2.7V | 00:00:00 | 00:00:00 | 00:00:00 | |
| SQ9EZE-13 | 2026-09-05 12:33:19 | -12.04861 | -77.04970 | 267° | 199km/h | 1051m | 0.2m/s | -49.2°C | 1.2% | 27.0hPa | 2.7V | 00:00:00 | 00:00:00 | 00:00:00 | |
| SQ9EZE-13 | 2026-09-05 12:33:04 | -12.04510 | -77.04308 | 219° | 199km/h | 1034m | 0.3m/s | -49.4°C | 1.2% | 27.4hPa | 2.7V | 00:00:00 | 00:00:00 | 00:00:00 | |
| SQ9EZE-13 | 2026-09-05 12:32:48 | -12.03723 | -77.04125 | 167° | 199km/h | 1004m | 0.0m/s | -49.3°C | 1.2% | 27.8hPa | 2.7V | 00:00:00 | 00:00:00 | 00:00:00 | |
| GYPAP8-17 | 2026-09-05 12:32:45 | -12.03576 | -77.04169 | 158° | 199km/h | 992m | -0.1m/s | -49.3°C | 1.2% | 27.8hPa | 2.7V | 00:00:00 | 00:00:00 | 00:00:00 | |
| SQ9EZE-13 | 2026-09-05 12:32:32 | -12.03115 | -77.04622 | 116° | 199km/h | 989m | 0.3m/s | !°C | 1.2% | 28.2hPa | 2.7V | 00:00:00 | 00:00:00 | 00:00:00 | |
| SQ9EZE-13 | 2026-09-05 12:32:16 | -12.03122 | -77.05412 | 65° | 199km/h | 984m | -0.0m/s | -50.0°C | 1.3% | 28.6hPa | 2.7V | 00:00:00 | 00:00:00 | 00:00:00 | |
| SQ9EZE-13 | 2026-09-05 12:32:00 | -12.03738 | -77.05901 | 13° | 199km/h | 983m | -0.0m/s | -50.0°C | 1.2% | 29.0hPa | 2.7V | 00:00:00 | 00:00:00 | 00:00:00 | |
| SQ9EZE-13 | 2026-09-05 12:31:45 | -12.04457 | -77.05747 | 325° | 199km/h | 979m | -0.0m/s | -49.7°C | 1.2% | 29.4hPa | 2.7V | 00:00:00 | 00:00:00 | 00:00:00 | |
| GYPAP8-17 | 2026-09-05 12:31:43 | -12.04535 | -77.05683 | 319° | 199km/h | 979m | -0.0m/s | -49.6°C | 1.2% | 29.4hPa | 2.7V | 00:00:00 | 00:00:00 | 00:00:00 | |
| SQ9EZE-13 | 2026-09-05 12:31:29 | -12.04825 | -77.05053 | 274° | 199km/h | 971m | -0.0m/s | -49.9°C | 1.2% | 29.8hPa | 2.7V | 00:00:00 | 00:00:00 | 00:00:00 | |
| SQ9EZE-13 | 2026-09-05 12:31:13 | -12.04300 | -77.05797 | 0° | 0km/h | 992m | 0.0m/s | -50.3°C | 1.2% | 30.3hPa | 2.7V | 00:00:00 | 00:00:00 | 00:00:00 | |
| SQ9EZE-14 | 2026-09-05 12:31:07 | -35.29544 | -45.00000 | 0° | 0km/h | 30824m | 0.0m/s | -50.4°C | 1.3% | 30.4hPa | 2.7V | 00:00:00 | 00:00:00 | 00:00:00 | |
| SQ9EZE-13 | 2026-09-05 12:30:56 | -12.04088 | -77.05891 | 338° | 197km/h | 996m | 0.9m/s | -50.9°C | 1.2% | 30.7hPa | 2.7V | 00:00:00 | 00:00:00 | 00:00:00 | |
| SQ9EZE-14 | 2026-09-05 12:30:52 | -12.04300 | -77.05797 | 338° | 197km/h | 992m | 0.9m/s | -51.3°C | 1.2% | 30.9hPa | 2.7V | 00:00:00 | 00:00:00 | 00:00:00 | |
| GYPAP8-17 | 2026-09-05 12:30:18 | -12.04757 | -77.05341 | 296° | 199km/h | 991m | 0.1m/s | -53.3°C | 1.4% | 31.8hPa | 2.7V | 00:00:00 | 00:00:00 | 00:00:00 | |
| SQ9EZE-13 | 2026-09-05 12:30:01 | -12.04719 | -77.04501 | 241° | 199km/h | 991m | 0.1m/s | -53.8°C | 1.4% | 32.4hPa | 2.7V | 00:00:00 | 00:00:00 | 00:00:00 | |
| SQ9EZE-13 | 2026-09-05 12:29:34 | -12.03533 | -77.04136 | 154° | 199km/h | 991m | 0.3m/s | -54.3°C | 1.5% | 33.2hPa | 2.7V | 00:00:00 | 00:00:00 | 00:00:00 | |
| SQ9EZE-13 | 2026-09-05 12:29:18 | -12.03053 | -77.04765 | 103° | 199km/h | 990m | -0.1m/s | -54.3°C | 1.5% | 33.7hPa | 2.7V | 00:00:00 | 00:00:00 | 00:00:00 | |
| SQ9EZE-13 | 2026-09-05 12:29:02 | -12.03236 | -77.05539 | 52° | 199km/h | 989m | 1.5m/s | -53.8°C | 1.5% | 34.2hPa | 2.7V | 00:00:00 | 00:00:00 | 00:00:00 | |
| SQ9EZE-14 | 2026-09-05 12:28:50 | -12.03743 | -77.05856 | 13° | 199km/h | 986m | 0.4m/s | -53.6°C | 1.5% | 34.6hPa | 2.7V | 00:00:00 | 00:00:00 | 00:00:00 | |
| SQ9EZE-13 | 2026-09-05 12:28:46 | -12.03945 | -77.05876 | 360° | 199km/h | 986m | -0.8m/s | -53.5°C | 1.5% | 34.7hPa | 2.7V | 00:00:00 | 00:00:00 | 00:00:00 | |
| SQ9EZE-14 | 2026-09-05 12:28:34 | -12.04506 | -77.05672 | 322° | 199km/h | 988m | -0.2m/s | -53.5°C | 1.5% | 35.1hPa | 2.7V | 00:00:00 | 00:00:00 | 00:00:00 | |
| SQ9EZE-13 | 2026-09-05 12:28:30 | -12.04648 | -77.05526 | 309° | 199km/h | 987m | 0.2m/s | -53.4°C | 1.5% | 35.2hPa | 2.7V | 00:00:00 | 00:00:00 | 00:00:00 | |
| SQ9EZE-13 | 2026-09-05 12:28:14 | -12.04817 | -77.04749 | 258° | 199km/h | 989m | -1.3m/s | -53.2°C | 1.5% | 35.8hPa | 2.7V | 00:00:00 | 00:00:00 | 00:00:00 | |
| SQ9EZE-13 | 2026-09-05 12:27:59 | -12.04370 | -77.04153 | 210° | 199km/h | 989m | -0.2m/s | -53.0°C | 1.5% | 36.3hPa | 2.7V | 00:00:00 | 00:00:00 | 00:00:00 | |
| GYPAP8-17 | 2026-09-05 12:27:49 | -12.03832 | -77.04047 | 174° | 199km/h | 989m | 0.0m/s | -52.7°C | 1.4% | 36.7hPa | 2.7V | 00:00:00 | 00:00:00 | 00:00:00 | |
| SQ9EZE-13 | 2026-09-05 12:27:43 | -12.03588 | -77.04111 | 158° | 199km/h | 990m | -0.1m/s | -52.6°C | 1.4% | 36.8hPa | 2.7V | 00:00:00 | 00:00:00 | 00:00:00 | |
| SQ9EZE-13 | 2026-09-05 12:27:27 | -12.03067 | -77.04705 | 107° | 199km/h | 991m | 0.1m/s | -52.3°C | 1.4% | 37.4hPa | 2.7V | 00:00:00 | 00:00:00 | 00:00:00 | |
| SQ9EZE-13 | 2026-09-05 12:27:12 | -12.03171 | -77.05447 | 59° | 199km/h | 992m | 0.1m/s | -52.1°C | 1.4% | 37.9hPa | 2.7V | 00:00:00 | 00:00:00 | 00:00:00 | |
| SQ9EZE-13 | 2026-09-05 12:26:57 | -12.03784 | -77.05862 | 11° | 199km/h | 996m | -0.1m/s | -51.9°C | 1.4% | 38.4hPa | 2.7V | 00:00:00 | 00:00:00 | 00:00:00 | |
| GYPAP8-17 | 2026-09-05 12:26:51 | -12.04086 | -77.05863 | 352° | 199km/h | 997m | -0.1m/s | -51.9°C | 1.4% | 38.7hPa | 2.7V | 00:00:00 | 00:00:00 | 00:00:00 | |
| SQ9EZE-13 | 2026-09-05 12:26:41 | -12.04537 | -77.05643 | 319° | 199km/h | 995m | -0.2m/s | -52.0°C | 1.4% | 39.0hPa | 2.7V | 00:00:00 | 00:00:00 | 00:00:00 | |
| SP9KGR-15 | 2026-09-05 12:26:38 | -12.04641 | -77.05531 | 310° | 199km/h | 994m | -0.1m/s | -52.3°C | 1.4% | 39.1hPa | 2.7V | 00:00:00 | 00:00:00 | 00:00:00 | |
| SQ9EZE-14 | 2026-09-05 12:26:28 | -12.04835 | -77.05064 | 278° | 199km/h | 992m | -0.3m/s | -52.4°C | 1.4% | 39.5hPa | 2.7V | 00:00:00 | 00:00:00 | 00:00:00 | |
| SQ9EZE-13 | 2026-09-05 12:26:25 | -12.04840 | -77.04910 | 268° | 199km/h | 992m | -0.4m/s | -52.3°C | 1.4% | 39.6hPa | 2.7V | 00:00:00 | 00:00:00 | 00:00:00 | |
| SP9KGR-15 | 2026-09-05 12:26:22 | -12.04820 | -77.04757 | 259° | 199km/h | 993m | -0.2m/s | -52.5°C | 1.4% | 39.7hPa | 2.7V | 00:00:00 | 00:00:00 | 00:00:00 | |
| SQ9EZE-14 | 2026-09-05 12:26:12 | -12.04581 | -77.04311 | 226° | 199km/h | 994m | 0.0m/s | -52.5°C | 1.4% | 40.0hPa | 2.7V | 00:00:00 | 00:00:00 | 00:00:00 | |
| SQ9EZE-13 | 2026-09-05 12:26:10 | -12.04505 | -77.04242 | 220° | 199km/h | 993m | 0.3m/s | -52.3°C | 1.4% | 40.1hPa | 2.7V | 00:00:00 | 00:00:00 | 00:00:00 | |
| SP9KGR-15 | 2026-09-05 12:26:04 | -12.04242 | -77.04092 | 201° | 199km/h | 992m | 0.1m/s | -52.3°C | 1.3% | 40.3hPa | 2.7V | 00:00:00 | 00:00:00 | 00:00:00 | |
| SQ9EZE-13 | 2026-09-05 12:25:55 | -12.03741 | -77.04058 | 169° | 201km/h | 993m | 2.7m/s | -53.0°C | 1.4% | 40.7hPa | 2.7V | 00:00:00 | 00:00:00 | 00:00:00 | |
| SP9KGR-15 | 2026-09-05 12:25:50 | -12.03502 | -77.04147 | 152° | 199km/h | 990m | 0.2m/s | -53.3°C | 1.5% | 40.8hPa | 2.7V | 00:00:00 | 00:00:00 | 00:00:00 | |
| GYPAP8-17 | 2026-09-05 12:25:49 | -12.03502 | -77.04147 | 152° | 199km/h | 990m | 0.2m/s | -53.3°C | 1.5% | 40.8hPa | 2.7V | 00:00:00 | 00:00:00 | 00:00:00 | |
| SQ9EZE-13 | 2026-09-05 12:25:38 | -12.03121 | -77.04547 | 117° | 197km/h | 990m | -2.1m/s | -53.1°C | 1.4% | 41.3hPa | 2.7V | 00:00:00 | 00:00:00 | 00:00:00 | |
| SP9KGR-15 | 2026-09-05 12:25:33 | -12.03046 | -77.04791 | 100° | 199km/h | 997m | -1.3m/s | -53.1°C | 1.4% | 41.4hPa | 2.7V | 00:00:00 | 00:00:00 | 00:00:00 | |
| SQ9EZE-13 | 2026-09-05 12:25:22 | -12.03118 | -77.05345 | 66° | 199km/h | 998m | -0.4m/s | -53.1°C | 1.5% | 41.8hPa | 2.7V | 00:00:00 | 00:00:00 | 00:00:00 | |
| SP9KGR-15 | 2026-09-05 12:25:18 | -12.03224 | -77.05520 | 53° | 199km/h | 996m | -0.9m/s | -53.0°C | 1.4% | 42.0hPa | 2.7V | 00:00:00 | 00:00:00 | 00:00:00 | |
| SQ9EZE-13 | 2026-09-05 12:25:06 | -12.03724 | -77.05849 | 15° | 199km/h | 993m | -0.1m/s | -52.6°C | 1.4% | 42.4hPa | 2.7V | 00:00:00 | 00:00:00 | 00:00:00 | |
| SP9KGR-15 | 2026-09-05 12:25:02 | -12.03924 | -77.05875 | 2° | 199km/h | 993m | -0.5m/s | -52.8°C | 1.4% | 42.6hPa | 2.7V | 00:00:00 | 00:00:00 | 00:00:00 | |
| SP9KGR-15 | 2026-09-05 12:24:47 | -12.04602 | -77.05579 | 314° | 199km/h | 998m | 0.4m/s | -53.3°C | 1.5% | 43.1hPa | 2.7V | 00:00:00 | 00:00:00 | 00:00:00 | |
| GYPAP8-17 | 2026-09-05 12:24:43 | -12.04722 | -77.05413 | 301° | 199km/h | 999m | -0.0m/s | -53.4°C | 1.4% | 43.2hPa | 2.7V | 00:00:00 | 00:00:00 | 00:00:00 | |
| SQ9EZE-13 | 2026-09-05 12:24:35 | -12.04840 | -77.05022 | 275° | 199km/h | 1000m | -0.0m/s | -54.3°C | 1.5% | 43.5hPa | 2.7V | 00:00:00 | 00:00:00 | 00:00:00 | |
| SP9KGR-15 | 2026-09-05 12:24:32 | -12.04838 | -77.04869 | 265° | 199km/h | 1000m | 0.2m/s | -54.1°C | 1.5% | 43.6hPa | 2.7V | 00:00:00 | 00:00:00 | 00:00:00 | |
| SQ9EZE-13 | 2026-09-05 12:24:18 | -12.04514 | -77.04249 | 220° | 199km/h | 989m | 1.2m/s | -53.9°C | 1.5% | 44.2hPa | 2.7V | 00:00:00 | 00:00:00 | 00:00:00 | |
| SP9KGR-15 | 2026-09-05 12:24:16 | -12.04433 | -77.04188 | 214° | 199km/h | 989m | 0.4m/s | -53.8°C | 1.5% | 44.2hPa | 2.7V | 00:00:00 | 00:00:00 | 00:00:00 | |
| SQ9EZE-14 | 2026-09-05 12:24:09 | -12.04106 | -77.04055 | 192° | 199km/h | 988m | 0.3m/s | -53.7°C | 1.6% | 44.5hPa | 2.7V | 00:00:00 | 00:00:00 | 00:00:00 | |
| SQ9EZE-13 | 2026-09-05 12:24:03 | -12.03803 | -77.04049 | 172° | 199km/h | 986m | 0.5m/s | -53.5°C | 1.5% | 44.8hPa | 2.7V | 00:00:00 | 00:00:00 | 00:00:00 | |
| SP9KGR-15 | 2026-09-05 12:24:01 | -12.03704 | -77.04069 | 166° | 199km/h | 986m | 0.1m/s | -53.4°C | 1.5% | 44.9hPa | 2.7V | 00:00:00 | 00:00:00 | 00:00:00 | |
| SQ9EZE-14 | 2026-09-05 12:23:54 | -12.03388 | -77.04227 | 144° | 199km/h | 985m | -0.4m/s | -53.6°C | 1.5% | 45.1hPa | 2.7V | 00:00:00 | 00:00:00 | 00:00:00 | |
| SQ9EZE-13 | 2026-09-05 12:23:47 | -12.03156 | -77.04496 | 121° | 199km/h | 987m | 0.2m/s | -53.4°C | 1.4% | 45.4hPa | 2.7V | 00:00:00 | 00:00:00 | 00:00:00 | |
| SP9KGR-15 | 2026-09-05 12:23:46 | -12.03132 | -77.04541 | 118° | 199km/h | 985m | -0.2m/s | -53.4°C | 1.4% | 45.4hPa | 2.7V | 00:00:00 | 00:00:00 | 00:00:00 | |
| GYPAP8-17 | 2026-09-05 12:23:41 | -12.03050 | -77.04784 | 102° | 199km/h | 985m | 0.2m/s | -53.8°C | 1.5% | 45.6hPa | 2.7V | 00:00:00 | 00:00:00 | 00:00:00 | |
| SQ9EZE-13 | 2026-09-05 12:23:31 | -12.03095 | -77.05289 | 70° | 199km/h | 986m | -0.0m/s | -53.8°C | 1.5% | 46.0hPa | 2.7V | 00:00:00 | 00:00:00 | 00:00:00 | |
| SP9KGR-15 | 2026-09-05 12:23:31 | -12.03095 | -77.05289 | 70° | 199km/h | 986m | -0.0m/s | -53.8°C | 1.5% | 46.0hPa | 2.7V | 00:00:00 | 00:00:00 | 00:00:00 | |
| SQ9EZE-13 | 2026-09-05 12:23:15 | -12.03667 | -77.05832 | 19° | 201km/h | 989m | -0.6m/s | -54.1°C | 1.5% | 46.7hPa | 2.7V | 00:00:00 | 00:00:00 | 00:00:00 | |
| SP9KGR-15 | 2026-09-05 12:23:15 | -12.03667 | -77.05832 | 19° | 201km/h | 989m | -0.6m/s | -54.1°C | 1.5% | 46.7hPa | 2.7V | 00:00:00 | 00:00:00 | 00:00:00 | |
| SQ9EZE-13 | 2026-09-05 12:23:00 | -12.04400 | -77.05746 | 330° | 201km/h | 982m | -0.5m/s | -53.8°C | 1.5% | 47.2hPa | 2.7V | 00:00:00 | 00:00:00 | 00:00:00 | |
| SP9KGR-15 | 2026-09-05 12:22:59 | -12.04443 | -77.05719 | 327° | 199km/h | 982m | 0.4m/s | -53.8°C | 1.5% | 47.3hPa | 2.7V | 00:00:00 | 00:00:00 | 00:00:00 | |
| SQ9EZE-13 | 2026-09-05 12:22:45 | -12.04831 | -77.05131 | 281° | 195km/h | 981m | -0.9m/s | -53.9°C | 1.5% | 47.8hPa | 2.7V | 00:00:00 | 00:00:00 | 00:00:00 | |
| SP9KGR-15 | 2026-09-05 12:22:43 | -12.04844 | -77.05029 | 276° | 203km/h | 976m | 2.4m/s | -53.8°C | 1.5% | 47.9hPa | 2.7V | 00:00:00 | 00:00:00 | 00:00:00 | |
| GYPAP8-17 | 2026-09-05 12:22:33 | -12.04743 | -77.04535 | 243° | 199km/h | 985m | -0.6m/s | -53.7°C | 1.5% | 48.3hPa | 2.7V | 00:00:00 | 00:00:00 | 00:00:00 | |
| SQ9EZE-13 | 2026-09-05 12:22:29 | -12.04628 | -77.04365 | 231° | 199km/h | 985m | 2.7m/s | -53.9°C | 1.5% | 48.5hPa | 2.7V | 00:00:00 | 00:00:00 | 00:00:00 | |
| SP9KGR-15 | 2026-09-05 12:22:28 | -12.04595 | -77.04327 | 228° | 201km/h | 985m | 1.1m/s | -53.9°C | 1.5% | 48.6hPa | 2.7V | 00:00:00 | 00:00:00 | 00:00:00 | |
| SQ9EZE-13 | 2026-09-05 12:22:13 | -12.03914 | -77.04039 | 180° | 199km/h | 987m | -0.5m/s | -53.8°C | 1.5% | 49.2hPa | 2.7V | 00:00:00 | 00:00:00 | 00:00:00 | |
| SP9KGR-15 | 2026-09-05 12:22:12 | -12.03864 | -77.04041 | 176° | 197km/h | 987m | -0.8m/s | -53.8°C | 1.6% | 49.2hPa | 2.7V | 00:00:00 | 00:00:00 | 00:00:00 | |
| SQ9EZE-13 | 2026-09-05 12:21:58 | -12.03217 | -77.04401 | 128° | 199km/h | 991m | 0.1m/s | -53.6°C | 1.5% | 49.9hPa | 2.7V | 00:00:00 | 00:00:00 | 00:00:00 | |
| SP9KGR-15 | 2026-09-05 12:21:57 | -12.03217 | -77.04401 | 128° | 199km/h | 991m | 0.1m/s | -53.6°C | 1.5% | 49.9hPa | 2.7V | 00:00:00 | 00:00:00 | 00:00:00 | |
| SP9KGR-15 | 2026-09-05 12:21:41 | -12.03060 | -77.05180 | 77° | 199km/h | 988m | 0.0m/s | -54.1°C | 1.6% | 50.6hPa | 2.7V | 00:00:00 | 00:00:00 | 00:00:00 | |
| SQ9EZE-13 | 2026-09-05 12:21:41 | -12.03060 | -77.05180 | 77° | 199km/h | 988m | 0.0m/s | -54.1°C | 1.6% | 50.6hPa | 2.7V | 00:00:00 | 00:00:00 | 00:00:00 | |
| SQ9EZE-14 | 2026-09-05 12:21:29 | -12.03389 | -77.05686 | 38° | 199km/h | 990m | 0.3m/s | -53.6°C | 1.5% | 51.2hPa | 2.7V | 00:00:00 | 00:00:00 | 00:00:00 | |
| SP9KGR-15 | 2026-09-05 12:21:26 | 49.04824 | 21.50498 | 0° | 0km/h | 20711m | 0.0m/s | -53.5°C | 1.5% | 51.3hPa | 2.7V | 00:00:00 | 00:00:00 | 00:00:00 | |
| GYPAP8-17 | 2026-09-05 12:21:24 | 49.04824 | 21.50498 | 0° | 0km/h | 20711m | 0.0m/s | -53.5°C | 1.5% | 51.4hPa | 2.7V | 00:00:00 | 00:00:00 | 00:00:00 | |
| SQ9EZE-14 | 2026-09-05 12:21:13 | 49.04824 | 21.50498 | 0° | 0km/h | 20711m | 0.0m/s | -54.0°C | 1.5% | 51.9hPa | 2.7V | 00:00:00 | 00:00:00 | 00:00:00 | |
| SP9KGR-15 | 2026-09-05 12:21:10 | 49.04824 | 21.50498 | 0° | 0km/h | 20711m | 0.0m/s | -54.1°C | 1.6% | 52.0hPa | 2.7V | 00:00:00 | 00:00:00 | 00:00:00 | |
| SP9KGR-15 | 2026-09-05 12:20:56 | 49.04781 | 21.50460 | 31° | 33km/h | 20677m | 5.6m/s | -53.3°C | 1.5% | 52.8hPa | 2.7V | 00:00:00 | 00:00:00 | 00:00:00 | |
| SP9KGR-15 | 2026-09-05 12:20:41 | 49.04703 | 21.50366 | 39° | 27km/h | 20596m | 6.0m/s | -53.0°C | 1.5% | 53.5hPa | 2.7V | 00:00:00 | 00:00:00 | 00:00:00 | |
| SQ9EZE-13 | 2026-09-05 12:20:40 | 49.04703 | 21.50366 | 39° | 27km/h | 20596m | 6.0m/s | -53.0°C | 1.5% | 53.5hPa | 2.7V | 00:00:00 | 00:00:00 | 00:00:00 | |
| SQ9EZE-13 | 2026-09-05 12:20:25 | 49.04642 | 21.50284 | 117° | 11km/h | 20494m | 4.1m/s | -52.8°C | 1.5% | 54.2hPa | 2.7V | 00:00:00 | 00:00:00 | 00:00:00 | |
| SP9KGR-15 | 2026-09-05 12:20:24 | 49.04642 | 21.50284 | 117° | 11km/h | 20494m | 4.1m/s | -52.8°C | 1.5% | 54.2hPa | 2.7V | 00:00:00 | 00:00:00 | 00:00:00 | |
| GYPAP8-17 | 2026-09-05 12:20:14 | 49.04621 | 21.50207 | 78° | 11km/h | 20440m | 4.1m/s | -52.7°C | 1.4% | 54.7hPa | 2.7V | 00:00:00 | 00:00:00 | 00:00:00 | |
| SP9KGR-15 | 2026-09-05 12:20:09 | 49.04625 | 21.50175 | 90° | 16km/h | 20401m | 3.9m/s | -52.5°C | 1.5% | 55.0hPa | 2.7V | 00:00:00 | 00:00:00 | 00:00:00 | |
| SQ9EZE-13 | 2026-09-05 12:20:05 | 49.04621 | 21.50151 | 83° | 22km/h | 20389m | 5.1m/s | -52.3°C | 1.4% | 55.1hPa | 2.7V | 00:00:00 | 00:00:00 | 00:00:00 | |
| SP9KGR-15 | 2026-09-05 12:19:54 | 49.04633 | 21.50064 | 96° | 27km/h | 20319m | 5.7m/s | -52.9°C | 1.5% | 55.7hPa | 2.7V | 00:00:00 | 00:00:00 | 00:00:00 | |
| SQ9EZE-13 | 2026-09-05 12:19:46 | 49.04642 | 21.50000 | 119° | 27km/h | 20282m | 5.5m/s | -53.1°C | 1.5% | 56.0hPa | 2.7V | 00:00:00 | 00:00:00 | 00:00:00 | |
| SP9KGR-15 | 2026-09-05 12:19:39 | 49.04673 | 21.49896 | 107° | 31km/h | 20245m | 5.5m/s | -52.9°C | 1.5% | 56.4hPa | 2.7V | 00:00:00 | 00:00:00 | 00:00:00 | |
| SQ9EZE-13 | 2026-09-05 12:19:15 | 49.04701 | 21.49563 | 98° | 42km/h | 20117m | 4.1m/s | -53.0°C | 1.5% | 57.5hPa | 2.7V | 00:00:00 | 00:00:00 | 00:00:00 | |
| SP9KGR-15 | 2026-09-05 12:19:07 | 49.04700 | 21.49439 | 71° | 44km/h | 20068m | 4.7m/s | -53.0°C | 1.5% | 57.9hPa | 2.7V | 00:00:00 | 00:00:00 | 00:00:00 | |
| SQ9EZE-14 | 2026-09-05 12:19:04 | 49.04694 | 21.49378 | 78° | 42km/h | 20049m | 5.3m/s | -53.1°C | 1.5% | 58.1hPa | 2.7V | 00:00:00 | 00:00:00 | 00:00:00 | |
| SQ9EZE-13 | 2026-09-05 12:19:00 | 49.04690 | 21.49319 | 86° | 35km/h | 20027m | 5.8m/s | -53.0°C | 1.5% | 58.3hPa | 2.7V | 00:00:00 | 00:00:00 | 00:00:00 | |
| SP9KGR-15 | 2026-09-05 12:18:52 | 49.04672 | 21.49219 | 66° | 44km/h | 19982m | 4.5m/s | -53.3°C | 1.5% | 58.7hPa | 2.7V | 00:00:00 | 00:00:00 | 00:00:00 | |
| SQ9EZE-14 | 2026-09-05 12:18:48 | 49.04660 | 21.49174 | 64° | 40km/h | 19967m | 6.9m/s | -53.3°C | 1.5% | 58.8hPa | 2.7V | 00:00:00 | 00:00:00 | 00:00:00 | |
| SQ9EZE-13 | 2026-09-05 12:18:45 | 49.04634 | 21.49137 | 38° | 26km/h | 19942m | 5.4m/s | -53.2°C | 1.5% | 59.1hPa | 2.7V | 00:00:00 | 00:00:00 | 00:00:00 | |
| SP9KGR-15 | 2026-09-05 12:18:36 | 49.04593 | 21.49077 | 66° | 35km/h | 19890m | 6.1m/s | -53.0°C | 1.5% | 59.5hPa | 2.7V | 00:00:00 | 00:00:00 | 00:00:00 | |
| SQ9EZE-14 | 2026-09-05 12:18:32 | 49.04579 | 21.49024 | 55° | 38km/h | 19869m | 4.7m/s | -53.0°C | 1.5% | 59.7hPa | 2.7V | 00:00:00 | 00:00:00 | 00:00:00 | |
| SQ9EZE-13 | 2026-09-05 12:18:22 | 49.04542 | 21.48921 | 78° | 38km/h | 19821m | 3.7m/s | -53.1°C | 1.5% | 60.2hPa | 2.7V | 00:00:00 | 00:00:00 | 00:00:00 | |
| SP9KGR-15 | 2026-09-05 12:18:20 | 49.04539 | 21.48892 | 78° | 44km/h | 19809m | 4.6m/s | -53.1°C | 1.5% | 60.3hPa | 2.7V | 00:00:00 | 00:00:00 | 00:00:00 | |
| SQ9EZE-14 | 2026-09-05 12:18:17 | 49.04533 | 21.48845 | 97° | 42km/h | 19794m | 3.8m/s | -53.0°C | 1.5% | 60.5hPa | 2.7V | 00:00:00 | 00:00:00 | 00:00:00 | |
| SP9KGR-15 | 2026-09-05 12:18:05 | 49.04490 | 21.48649 | 79° | 42km/h | 19728m | 4.7m/s | -53.7°C | 1.5% | 61.1hPa | 2.7V | 00:00:00 | 00:00:00 | 00:00:00 | |
| GYPAP8-17 | 2026-09-05 12:17:55 | 49.04477 | 21.48516 | 75° | 37km/h | 19678m | 5.3m/s | -53.7°C | 1.5% | 61.6hPa | 2.7V | 00:00:00 | 00:00:00 | 00:00:00 | |
| SQ9EZE-13 | 2026-09-05 12:17:48 | 49.04455 | 21.48425 | 79° | 35km/h | 19641m | 6.3m/s | -54.0°C | 1.5% | 62.0hPa | 2.7V | 00:00:00 | 00:00:00 | 00:00:00 | |
| SP9KGR-15 | 2026-09-05 12:17:47 | 49.04451 | 21.48401 | 81° | 29km/h | 19628m | 4.0m/s | -54.1°C | 1.6% | 62.1hPa | 2.7V | 00:00:00 | 00:00:00 | 00:00:00 | |
| SQ9EZE-13 | 2026-09-05 12:17:33 | 49.04458 | 21.48254 | 94° | 29km/h | 19557m | 6.1m/s | -54.5°C | 1.5% | 62.7hPa | 2.7V | 00:00:00 | 00:00:00 | 00:00:00 | |
| SQ9EZE-13 | 2026-09-05 12:17:18 | 49.04483 | 21.48026 | 85° | 44km/h | 19476m | 5.2m/s | -55.1°C | 1.7% | 63.5hPa | 2.7V | 00:00:00 | 00:00:00 | 00:00:00 | |
| SP9KGR-15 | 2026-09-05 12:17:13 | 49.04482 | 21.47916 | 85° | 46km/h | 19444m | 4.8m/s | -54.9°C | 1.6% | 63.8hPa | 2.7V | 00:00:00 | 00:00:00 | 00:00:00 | |
| SQ9EZE-13 | 2026-09-05 12:17:02 | 49.04466 | 21.47749 | 79° | 42km/h | 19392m | 4.1m/s | -54.7°C | 1.6% | 64.3hPa | 2.7V | 00:00:00 | 00:00:00 | 00:00:00 | |
| SQ9EZE-13 | 2026-09-05 12:16:47 | 49.04420 | 21.47475 | 64° | 53km/h | 19316m | 4.3m/s | -55.5°C | 1.6% | 65.1hPa | 2.7V | 00:00:00 | 00:00:00 | 00:00:00 | |
| SP9KGR-15 | 2026-09-05 12:16:45 | 49.04405 | 21.47422 | 73° | 46km/h | 19302m | 3.4m/s | -55.5°C | 1.6% | 65.2hPa | 2.7V | 00:00:00 | 00:00:00 | 00:00:00 | |
| SQ9EZE-13 | 2026-09-05 12:16:31 | 49.04348 | 21.47225 | 60° | 44km/h | 19233m | 5.8m/s | -55.9°C | 1.7% | 65.9hPa | 2.7V | 00:00:00 | 00:00:00 | 00:00:00 | |
| GYPAP8-17 | 2026-09-05 12:16:28 | 49.04330 | 21.47170 | 71° | 38km/h | 19213m | 3.9m/s | -55.8°C | 1.7% | 66.2hPa | 2.7V | 00:00:00 | 00:00:00 | 00:00:00 | |
| SQ9EZE-13 | 2026-09-05 12:16:17 | 49.04301 | 21.47053 | 67° | 31km/h | 19150m | 6.9m/s | -55.4°C | 1.7% | 66.8hPa | 2.7V | 00:00:00 | 00:00:00 | 00:00:00 | |
| SP9KGR-15 | 2026-09-05 12:16:13 | 49.04289 | 21.47008 | 71° | 31km/h | 19128m | 4.0m/s | -55.1°C | 1.6% | 67.1hPa | 2.7V | 00:00:00 | 00:00:00 | 00:00:00 | |
| SQ9EZE-14 | 2026-09-05 12:16:12 | 49.04289 | 21.47008 | 71° | 31km/h | 19128m | 4.0m/s | -55.1°C | 1.6% | 67.1hPa | 2.7V | 00:00:00 | 00:00:00 | 00:00:00 | |
| SQ9EZE-13 | 2026-09-05 12:15:59 | 49.04262 | 21.46907 | 71° | 26km/h | 19059m | 5.1m/s | -54.6°C | 1.6% | 67.8hPa | 2.7V | 00:00:00 | 00:00:00 | 00:00:00 | |
| SP9KGR-15 | 2026-09-05 12:15:57 | 49.04254 | 21.46877 | 69° | 27km/h | 19043m | 5.1m/s | -54.5°C | 1.6% | 68.0hPa | 2.7V | 00:00:00 | 00:00:00 | 00:00:00 | |
| SQ9EZE-14 | 2026-09-05 12:15:56 | 49.04254 | 21.46877 | 69° | 27km/h | 19043m | 5.1m/s | -54.5°C | 1.6% | 68.0hPa | 2.7V | 00:00:00 | 00:00:00 | 00:00:00 | |
| SQ9EZE-13 | 2026-09-05 12:15:43 | 49.04233 | 21.46773 | 77° | 27km/h | 18974m | 6.7m/s | -54.0°C | 1.6% | 68.7hPa | 2.7V | 00:00:00 | 00:00:00 | 00:00:00 | |
| SP9KGR-15 | 2026-09-05 12:15:41 | 49.04227 | 21.46747 | 73° | 18km/h | 18957m | 5.9m/s | -54.1°C | 1.6% | 68.9hPa | 2.7V | 00:00:00 | 00:00:00 | 00:00:00 | |
| SQ9EZE-13 | 2026-09-05 12:15:28 | 49.04214 | 21.46659 | 86° | 20km/h | 18887m | 5.1m/s | -53.5°C | 1.6% | 69.7hPa | 2.7V | 00:00:00 | 00:00:00 | 00:00:00 | |
| SP9KGR-15 | 2026-09-05 12:15:25 | 49.04214 | 21.46644 | 92° | 18km/h | 18876m | 4.6m/s | -53.4°C | 1.6% | 69.8hPa | 2.7V | 00:00:00 | 00:00:00 | 00:00:00 | |
| SQ9EZE-13 | 2026-09-05 12:15:12 | 49.04209 | 21.46541 | 85° | 26km/h | 18803m | 6.9m/s | -52.9°C | 1.5% | 70.6hPa | 2.7V | 00:00:00 | 00:00:00 | 00:00:00 | |
| SP9KGR-15 | 2026-09-05 12:15:10 | 49.04208 | 21.46523 | 92° | 22km/h | 18793m | 5.5m/s | -52.8°C | 1.5% | 70.7hPa | 2.7V | 00:00:00 | 00:00:00 | 00:00:00 | |
| GYPAP8-17 | 2026-09-05 12:14:59 | 49.04206 | 21.46425 | 81° | 24km/h | 18724m | 6.0m/s | -52.3°C | 1.5% | 71.4hPa | 2.7V | 00:00:00 | 00:00:00 | 00:00:00 | |
| SQ9EZE-13 | 2026-09-05 12:14:56 | 49.04206 | 21.46409 | 94° | 22km/h | 18712m | 4.4m/s | -52.3°C | 1.5% | 71.6hPa | 2.7V | 00:00:00 | 00:00:00 | 00:00:00 | |
| SP9KGR-15 | 2026-09-05 12:14:54 | 49.04206 | 21.46391 | 91° | 24km/h | 18701m | 5.5m/s | -52.3°C | 1.5% | 71.7hPa | 2.7V | 00:00:00 | 00:00:00 | 00:00:00 | |
| SQ9EZE-13 | 2026-09-05 12:14:41 | 49.04203 | 21.46268 | 68° | 26km/h | 18629m | 5.3m/s | -52.0°C | 1.4% | 72.5hPa | 2.7V | 00:00:00 | 00:00:00 | 00:00:00 | |
| SP9KGR-15 | 2026-09-05 12:14:40 | 49.04199 | 21.46252 | 73° | 20km/h | 18616m | 5.1m/s | -52.0°C | 1.4% | 72.6hPa | 2.7V | 00:00:00 | 00:00:00 | 00:00:00 | |
| SQ9EZE-13 | 2026-09-05 12:14:25 | 49.04186 | 21.46107 | 81° | 27km/h | 18536m | 4.7m/s | -52.4°C | 1.4% | 73.5hPa | 2.7V | 00:00:00 | 00:00:00 | 00:00:00 | |
| SP9KGR-15 | 2026-09-05 12:14:24 | 49.04185 | 21.46086 | 89° | 26km/h | 18526m | 5.2m/s | -52.3°C | 1.4% | 73.6hPa | 2.7V | 00:00:00 | 00:00:00 | 00:00:00 | |
| SQ9EZE-13 | 2026-09-05 12:14:10 | 49.04192 | 21.45910 | 87° | 37km/h | 18454m | 3.9m/s | -52.6°C | 1.4% | 74.4hPa | 2.7V | 00:00:00 | 00:00:00 | 00:00:00 | |
| SP9KGR-15 | 2026-09-05 12:14:08 | 49.04190 | 21.45881 | 83° | 38km/h | 18443m | 5.8m/s | -53.2°C | 1.4% | 74.5hPa | 2.7V | 00:00:00 | 00:00:00 | 00:00:00 | |
| SQ9EZE-13 | 2026-09-05 12:13:55 | 49.04204 | 21.45659 | 92° | 44km/h | 18369m | 6.2m/s | -54.0°C | 1.6% | 75.5hPa | 2.7V | 00:00:00 | 00:00:00 | 00:00:00 | |
| SP9KGR-15 | 2026-09-05 12:13:53 | 49.04204 | 21.45643 | 94° | 42km/h | 18364m | 4.6m/s | -54.0°C | 1.6% | 75.5hPa | 2.7V | 00:00:00 | 00:00:00 | 00:00:00 | |
| SQ9EZE-13 | 2026-09-05 12:13:40 | 49.04220 | 21.45399 | 89° | 44km/h | 18293m | 4.4m/s | -54.2°C | 1.5% | 76.4hPa | 2.7V | 00:00:00 | 00:00:00 | 00:00:00 | |
| SP9KGR-15 | 2026-09-05 12:13:38 | 49.04220 | 21.45364 | 91° | 47km/h | 18281m | 5.4m/s | -54.3°C | 1.5% | 76.5hPa | 2.7V | 00:00:00 | 00:00:00 | 00:00:00 | |
| SQ9EZE-14 | 2026-09-05 12:13:24 | 49.04209 | 21.45134 | 87° | 53km/h | 18206m | 5.9m/s | -54.8°C | 1.6% | 77.4hPa | 2.7V | 00:00:00 | 00:00:00 | 00:00:00 | |
| SP9KGR-15 | 2026-09-05 12:13:22 | 49.04209 | 21.45114 | 90° | 53km/h | 18200m | 5.7m/s | -54.7°C | 1.6% | 77.5hPa | 2.7V | 00:00:00 | 00:00:00 | 00:00:00 | |
| GYPAP8-17 | 2026-09-05 12:13:16 | 49.04203 | 21.45008 | 71° | 29km/h | 18160m | 8.3m/s | -54.9°C | 1.7% | 78.0hPa | 2.7V | 00:00:00 | 00:00:00 | 00:00:00 | |
| SP9KGR-15 | 2026-09-05 12:13:08 | 49.04177 | 21.44897 | 78° | 44km/h | 18117m | 8.8m/s | -55.1°C | 1.7% | 78.5hPa | 2.7V | 00:00:00 | 00:00:00 | 00:00:00 | |
| SQ9EZE-13 | 2026-09-05 12:12:52 | 49.04154 | 21.44709 | 79° | 33km/h | 18020m | 8.0m/s | -54.5°C | 1.7% | 79.6hPa | 2.7V | 00:00:00 | 00:00:00 | 00:00:00 | |
| SP9KGR-15 | 2026-09-05 12:12:51 | 49.04152 | 21.44696 | 81° | 37km/h | 18015m | 2.1m/s | -54.5°C | 1.7% | 79.7hPa | 2.7V | 00:00:00 | 00:00:00 | 00:00:00 | |
| SQ9EZE-13 | 2026-09-05 12:12:36 | 49.04153 | 21.44508 | 89° | 35km/h | 17930m | 4.3m/s | -53.9°C | 1.6% | 80.8hPa | 2.7V | 00:00:00 | 00:00:00 | 00:00:00 | |
| SQ9EZE-13 | 2026-09-05 12:12:22 | 49.04176 | 21.44316 | 106° | 38km/h | 17843m | 3.8m/s | -53.8°C | 1.6% | 81.9hPa | 2.7V | 00:00:00 | 00:00:00 | 00:00:00 | |
| SQ9EZE-13 | 2026-09-05 12:12:06 | 49.04227 | 21.44106 | 116° | 46km/h | 17756m | 3.9m/s | -54.2°C | 1.6% | 83.0hPa | 2.7V | 00:00:00 | 00:00:00 | 00:00:00 | |
| GYPAP8-17 | 2026-09-05 12:11:52 | 49.04277 | 21.43867 | 102° | 51km/h | 17678m | 10.3m/s | -54.3°C | 1.6% | 84.1hPa | 2.7V | 00:00:00 | 00:00:00 | 00:00:00 | |
| SQ9EZE-13 | 2026-09-05 12:11:51 | 49.04281 | 21.43826 | 99° | 53km/h | 17665m | 7.3m/s | -54.4°C | 1.6% | 84.2hPa | 2.7V | 00:00:00 | 00:00:00 | 00:00:00 | |
| SP9KGR-15 | 2026-09-05 12:11:36 | 49.04321 | 21.43489 | 96° | 60km/h | 17580m | 2.9m/s | -55.4°C | 1.8% | 85.4hPa | 2.7V | 00:00:00 | 00:00:00 | 00:00:00 | |
| SQ9EZE-13 | 2026-09-05 12:11:20 | 49.04306 | 21.43149 | 86° | 57km/h | 17492m | 5.4m/s | -55.3°C | 1.8% | 86.6hPa | 2.7V | 00:00:00 | 00:00:00 | 00:00:00 | |
| SP9KGR-15 | 2026-09-05 12:11:19 | 49.04305 | 21.43127 | 86° | 55km/h | 17486m | 7.3m/s | -55.2°C | 1.7% | 86.6hPa | 2.7V | 00:00:00 | 00:00:00 | 00:00:00 | |
| SQ9EZE-13 | 2026-09-05 12:11:05 | 49.04273 | 21.42818 | 86° | 46km/h | 17393m | 6.0m/s | -55.2°C | 1.8% | 87.9hPa | 2.7V | 00:00:00 | 00:00:00 | 00:00:00 | |
| SP9KGR-15 | 2026-09-05 12:11:04 | 49.04271 | 21.42801 | 81° | 49km/h | 17387m | 4.7m/s | -55.1°C | 1.7% | 87.9hPa | 2.7V | 00:00:00 | 00:00:00 | 00:00:00 | |
| SQ9EZE-14 | 2026-09-05 12:11:02 | 49.04269 | 21.42782 | 80° | 51km/h | 17381m | 8.6m/s | -55.1°C | 1.8% | 88.0hPa | 2.7V | 00:00:00 | 00:00:00 | 00:00:00 | |
| SQ9EZE-13 | 2026-09-05 12:10:49 | 49.04230 | 21.42495 | 73° | 53km/h | 17305m | 3.6m/s | -55.0°C | 1.8% | 89.1hPa | 2.7V | 00:00:00 | 00:00:00 | 00:00:00 | |
| SP9KGR-15 | 2026-09-05 12:10:48 | 49.04226 | 21.42476 | 70° | 53km/h | 17299m | 8.1m/s | -54.9°C | 1.8% | 89.1hPa | 2.7V | 00:00:00 | 00:00:00 | 00:00:00 | |
| GYPAP8-17 | 2026-09-05 12:10:47 | 49.04221 | 21.42457 | 71° | 53km/h | 17293m | 3.5m/s | -54.9°C | 1.7% | 89.3hPa | 2.7V | 00:00:00 | 00:00:00 | 00:00:00 | |
| SP9KGR-15 | 2026-09-05 12:10:33 | 49.04186 | 21.42157 | 79° | 44km/h | 17207m | 5.7m/s | -54.9°C | 1.8% | 90.5hPa | 2.7V | 00:00:00 | 00:00:00 | 00:00:00 | |
| SP9KGR-15 | 2026-09-05 12:10:17 | 49.04166 | 21.41904 | 93° | 31km/h | 17108m | 6.0m/s | -54.3°C | 1.7% | 91.9hPa | 2.7V | 00:00:00 | 00:00:00 | 00:00:00 | |
| SQ9EZE-13 | 2026-09-05 12:10:16 | 49.04166 | 21.41891 | 95° | 35km/h | 17102m | 5.8m/s | -54.2°C | 1.7% | 92.0hPa | 2.7V | 00:00:00 | 00:00:00 | 00:00:00 | |
| SP9KGR-15 | 2026-09-05 12:10:02 | 49.04164 | 21.41645 | 87° | 35km/h | 17023m | 6.1m/s | -53.9°C | 1.7% | 93.1hPa | 2.7V | 00:00:00 | 00:00:00 | 00:00:00 | |
| SQ9EZE-13 | 2026-09-05 12:09:56 | 49.04164 | 21.41525 | 99° | 58km/h | 16982m | 5.5m/s | -54.1°C | 1.7% | 93.7hPa | 2.7V | 00:00:00 | 00:00:00 | 00:00:00 | |
| SP9KGR-15 | 2026-09-05 12:09:47 | 49.04186 | 21.41310 | 103° | 62km/h | 16922m | 5.5m/s | -53.8°C | 1.7% | 94.6hPa | 2.7V | 00:00:00 | 00:00:00 | 00:00:00 | |
| GYPAP8-17 | 2026-09-05 12:09:41 | 49.04199 | 21.41166 | 94° | 64km/h | 16889m | 5.8m/s | -53.6°C | 1.7% | 95.0hPa | 2.7V | 00:00:00 | 00:00:00 | 00:00:00 | |
| SQ9EZE-13 | 2026-09-05 12:09:36 | 49.04208 | 21.41046 | 99° | 60km/h | 16862m | 5.2m/s | -53.7°C | 1.7% | 95.4hPa | 2.7V | 00:00:00 | 00:00:00 | 00:00:00 | |
| SP9KGR-15 | 2026-09-05 12:09:28 | 49.04225 | 21.40886 | 97° | 64km/h | 16827m | 4.7m/s | -53.6°C | 1.7% | 96.0hPa | 2.7V | 00:00:00 | 00:00:00 | 00:00:00 | |
| SQ9EZE-13 | 2026-09-05 12:09:21 | 49.04227 | 21.40702 | 90° | 55km/h | 16787m | 4.7m/s | -53.5°C | 1.7% | 96.6hPa | 2.7V | 00:00:00 | 00:00:00 | 00:00:00 | |
| SP9KGR-15 | 2026-09-05 12:09:12 | 49.04222 | 21.40509 | 86° | 66km/h | 16746m | 4.7m/s | -53.3°C | 1.6% | 97.2hPa | 2.7V | 00:00:00 | 00:00:00 | 00:00:00 | |
| SQ9EZE-13 | 2026-09-05 12:09:04 | 49.04211 | 21.40325 | 83° | 60km/h | 16704m | 5.0m/s | -53.3°C | 1.6% | 97.8hPa | 2.7V | 00:00:00 | 00:00:00 | 00:00:00 | |
| SP9KGR-15 | 2026-09-05 12:08:56 | 49.04193 | 21.40140 | 84° | 57km/h | 16665m | 5.1m/s | -55.7°C | 1.9% | 98.4hPa | 2.7V | 00:00:00 | 00:00:00 | 00:00:00 | |
| SQ9EZE-13 | 2026-09-05 12:08:49 | 49.04171 | 21.39986 | 77° | 66km/h | 16633m | 4.0m/s | -56.0°C | 1.9% | 98.9hPa | 2.7V | 00:00:00 | 00:00:00 | 00:00:00 | |
| SP9KGR-15 | 2026-09-05 12:08:41 | 49.04140 | 21.39766 | 80° | 77km/h | 16594m | 4.9m/s | -55.8°C | 1.9% | 99.5hPa | 2.7V | 00:00:00 | 00:00:00 | 00:00:00 | |
| SQ9EZE-14 | 2026-09-05 12:08:40 | 49.04136 | 21.39736 | 81° | 77km/h | 16588m | 4.9m/s | -55.8°C | 1.9% | 99.6hPa | 2.7V | 00:00:00 | 00:00:00 | 00:00:00 | |
| SQ9EZE-13 | 2026-09-05 12:08:33 | 49.04118 | 21.39536 | 81° | 73km/h | 16552m | 4.4m/s | -55.6°C | 1.9% | 100.2hPa | 2.7V | 00:00:00 | 00:00:00 | 00:00:00 | |
| GYPAP8-17 | 2026-09-05 12:08:30 | 49.04106 | 21.39453 | 78° | 75km/h | 16537m | 3.9m/s | -55.5°C | 1.9% | 100.4hPa | 2.7V | 00:00:00 | 00:00:00 | 00:00:00 | |
| SP9KGR-15 | 2026-09-05 12:08:26 | 49.04091 | 21.39338 | 80° | 78km/h | 16517m | 5.9m/s | -55.5°C | 1.9% | 100.7hPa | 2.7V | 00:00:00 | 00:00:00 | 00:00:00 | |
| SQ9EZE-14 | 2026-09-05 12:08:24 | 49.04084 | 21.39279 | 80° | 77km/h | 16508m | 4.5m/s | -55.4°C | 2.0% | 100.9hPa | 2.7V | 00:00:00 | 00:00:00 | 00:00:00 | |
| SQ9EZE-13 | 2026-09-05 12:08:18 | 49.04059 | 21.39092 | 79° | 73km/h | 16472m | 4.8m/s | -55.3°C | 2.0% | 101.4hPa | 2.7V | 00:00:00 | 00:00:00 | 00:00:00 | |
| SP9KGR-15 | 2026-09-05 12:08:11 | 49.04033 | 21.38911 | 80° | 82km/h | 16444m | 3.5m/s | -55.1°C | 1.9% | 101.9hPa | 2.7V | 00:00:00 | 00:00:00 | 00:00:00 | |
| SQ9EZE-13 | 2026-09-05 12:07:56 | 49.03964 | 21.38487 | 76° | 73km/h | 16370m | 5.1m/s | -54.6°C | 1.9% | 103.0hPa | 2.7V | 00:00:00 | 00:00:00 | 00:00:00 | |
| SP9KGR-15 | 2026-09-05 12:07:55 | 49.03960 | 21.38460 | 77° | 69km/h | 16364m | 6.7m/s | -54.6°C | 1.9% | 103.2hPa | 2.7V | 00:00:00 | 00:00:00 | 00:00:00 | |
| SQ9EZE-13 | 2026-09-05 12:07:40 | 49.03895 | 21.38078 | 76° | 62km/h | 16289m | 4.4m/s | -54.3°C | 2.0% | 104.4hPa | 2.7V | 00:00:00 | 00:00:00 | 00:00:00 | |
| SP9KGR-15 | 2026-09-05 12:07:39 | 49.03890 | 21.38055 | 75° | 64km/h | 16285m | 3.0m/s | -54.3°C | 1.9% | 104.5hPa | 2.7V | 00:00:00 | 00:00:00 | 00:00:00 | |
| SQ9EZE-13 | 2026-09-05 12:07:25 | 49.03848 | 21.37702 | 87° | 68km/h | 16213m | 4.8m/s | -54.4°C | 2.0% | 105.7hPa | 2.7V | 00:00:00 | 00:00:00 | 00:00:00 | |
| SP9KGR-15 | 2026-09-05 12:07:24 | 49.03847 | 21.37676 | 86° | 68km/h | 16208m | 5.0m/s | -54.4°C | 1.9% | 105.7hPa | 2.7V | 00:00:00 | 00:00:00 | 00:00:00 | |
| SQ9EZE-13 | 2026-09-05 12:07:10 | 49.03827 | 21.37290 | 86° | 64km/h | 16135m | 3.1m/s | -54.7°C | 2.0% | 106.9hPa | 2.7V | 00:00:00 | 00:00:00 | 00:00:00 | |
| SP9KGR-15 | 2026-09-05 12:07:08 | 49.03825 | 21.37266 | 86° | 64km/h | 16130m | 5.8m/s | -54.7°C | 2.0% | 107.0hPa | 2.7V | 00:00:00 | 00:00:00 | 00:00:00 | |
| SQ9EZE-13 | 2026-09-05 12:06:53 | 49.03822 | 21.36847 | 92° | 69km/h | 16052m | 5.5m/s | -55.0°C | 2.1% | 108.3hPa | 2.7V | 00:00:00 | 00:00:00 | 00:00:00 | |
| SP9KGR-15 | 2026-09-05 12:06:52 | 49.03822 | 21.36819 | 91° | 71km/h | 16047m | 5.2m/s | -55.0°C | 2.1% | 108.4hPa | 2.7V | 00:00:00 | 00:00:00 | 00:00:00 | |
| GYPAP8-17 | 2026-09-05 12:06:50 | 49.03821 | 21.36764 | 88° | 75km/h | 16038m | 5.7m/s | -55.1°C | 2.1% | 108.6hPa | 2.7V | 00:00:00 | 00:00:00 | 00:00:00 | |
| SQ9EZE-13 | 2026-09-05 12:06:38 | 49.03823 | 21.36406 | 94° | 82km/h | 15978m | 5.4m/s | -54.8°C | 2.1% | 109.6hPa | 2.7V | 00:00:00 | 00:00:00 | 00:00:00 | |
| SP9KGR-15 | 2026-09-05 12:06:37 | 49.03823 | 21.36375 | 93° | 82km/h | 15973m | 3.8m/s | -54.7°C | 2.1% | 109.7hPa | 2.7V | 00:00:00 | 00:00:00 | 00:00:00 | |
| SQ9EZE-13 | 2026-09-05 12:06:22 | 49.03839 | 21.35918 | 97° | 82km/h | 15902m | 6.1m/s | -54.7°C | 2.1% | 110.9hPa | 2.7V | 00:00:00 | 00:00:00 | 00:00:00 | |
| SP9KGR-15 | 2026-09-05 12:06:21 | 49.03840 | 21.35886 | 94° | 84km/h | 15897m | 3.7m/s | -54.7°C | 2.1% | 111.0hPa | 2.7V | 00:00:00 | 00:00:00 | 00:00:00 | |
| SQ9EZE-14 | 2026-09-05 12:06:18 | 49.03844 | 21.35792 | 94° | 78km/h | 15882m | 4.3m/s | -54.6°C | 2.0% | 111.3hPa | 2.7V | 00:00:00 | 00:00:00 | 00:00:00 | |
| SQ9EZE-13 | 2026-09-05 12:06:07 | 49.03854 | 21.35465 | 89° | 78km/h | 15833m | 4.9m/s | -54.4°C | 2.1% | 112.1hPa | 2.7V | 00:00:00 | 00:00:00 | 00:00:00 | |
| SP9KGR-15 | 2026-09-05 12:06:05 | 49.03852 | 21.35403 | 89° | 82km/h | 15824m | 5.4m/s | -54.4°C | 2.1% | 112.3hPa | 2.7V | 00:00:00 | 00:00:00 | 00:00:00 | |
| SQ9EZE-14 | 2026-09-05 12:06:02 | 49.03852 | 21.35308 | 90° | 80km/h | 15811m | 5.2m/s | -54.4°C | 2.1% | 112.5hPa | 2.7V | 00:00:00 | 00:00:00 | 00:00:00 | |
| SQ9EZE-13 | 2026-09-05 12:05:52 | 49.03849 | 21.35003 | 89° | 88km/h | 15765m | 5.3m/s | -54.9°C | 2.2% | 113.3hPa | 2.7V | 00:00:00 | 00:00:00 | 00:00:00 | |
| SP9KGR-15 | 2026-09-05 12:05:50 | 49.03847 | 21.34937 | 89° | 86km/h | 15756m | 4.2m/s | -54.9°C | 2.2% | 113.5hPa | 2.7V | 00:00:00 | 00:00:00 | 00:00:00 | |
| GYPAP8-17 | 2026-09-05 12:05:46 | 49.03842 | 21.34775 | 83° | 84km/h | 15734m | 4.2m/s | -54.8°C | 2.2% | 113.9hPa | 2.7V | 00:00:00 | 00:00:00 | 00:00:00 | |
| OE3JTB-15 | 2026-09-05 12:05:40 | 49.03821 | 21.34580 | 84° | 89km/h | 15705m | 5.0m/s | -54.7°C | 4.9% | 114.4hPa | 2.7V | 00:00:00 | 00:00:00 | 00:00:00 | |
| SQ9EZE-13 | 2026-09-05 12:05:36 | 49.03815 | 21.34481 | 86° | 86km/h | 15690m | 5.7m/s | -54.9°C | 2.2% | 114.6hPa | 2.7V | 00:00:00 | 00:00:00 | 00:00:00 | |
| SP9KGR-15 | 2026-09-05 12:05:35 | 49.03813 | 21.34448 | 85° | 84km/h | 15686m | 4.1m/s | -54.9°C | 2.2% | 114.7hPa | 2.7V | 00:00:00 | 00:00:00 | 00:00:00 | |
| SQ9EZE-13 | 2026-09-05 12:05:22 | 49.03778 | 21.33988 | 90° | 89km/h | 15622m | 4.5m/s | -55.1°C | 2.2% | 115.9hPa | 2.7V | 00:00:00 | 00:00:00 | 00:00:00 | |
| SP9KGR-15 | 2026-09-05 12:05:19 | 49.03776 | 21.33918 | 89° | 89km/h | 15614m | 4.6m/s | -55.2°C | 2.2% | 116.0hPa | 2.7V | 00:00:00 | 00:00:00 | 00:00:00 | |
| OE3JTB-15 | 2026-09-05 12:05:11 | 49.03768 | 21.33600 | 89° | 106km/h | 15573m | 5.2m/s | -55.3°C | 5.0% | 116.7hPa | 2.7V | 00:00:00 | 01:44:08 | 00:00:00 | |
| SQ9EZE-13 | 2026-09-05 12:05:06 | 49.03769 | 21.33418 | 92° | 97km/h | 15550m | 5.0m/s | -55.5°C | 2.2% | 117.2hPa | 2.7V | 00:00:00 | 00:00:00 | 00:00:00 | |
| SP9KGR-15 | 2026-09-05 12:05:04 | 49.03769 | 21.33380 | 91° | 99km/h | 15546m | 4.1m/s | -55.6°C | 2.3% | 117.3hPa | 2.7V | 00:00:00 | 00:00:00 | 00:00:00 | |
| SQ9EZE-13 | 2026-09-05 12:04:50 | 49.03782 | 21.32834 | 92° | 102km/h | 15484m | 2.8m/s | -56.0°C | 2.4% | 118.4hPa | 2.7V | 00:00:00 | 00:00:00 | 00:00:00 | |
| SP9KGR-15 | 2026-09-05 12:04:48 | 49.03782 | 21.32755 | 91° | 106km/h | 15475m | 5.2m/s | !°C | 2.4% | 118.5hPa | 2.7V | 00:00:00 | 00:00:00 | 00:00:00 | |
| SQ9EZE-13 | 2026-09-05 12:04:35 | 49.03773 | 21.32225 | 89° | 102km/h | 15414m | 4.5m/s | -55.9°C | 2.4% | 119.7hPa | 2.7V | 00:00:00 | 00:00:00 | 00:00:00 | |
| GYPAP8-17 | 2026-09-05 12:04:33 | 49.03771 | 21.32144 | 89° | 106km/h | 15405m | 5.7m/s | -55.9°C | 2.4% | 119.9hPa | 2.7V | 00:00:00 | 00:00:00 | 00:00:00 | |
| SP9KGR-15 | 2026-09-05 12:04:32 | 49.03770 | 21.32103 | 89° | 110km/h | 15401m | 3.3m/s | -55.9°C | 2.4% | 120.0hPa | 2.7V | 00:00:00 | 00:00:00 | 00:00:00 | |
| SQ9EZE-13 | 2026-09-05 12:04:19 | 49.03742 | 21.31582 | 86° | 97km/h | 15341m | 5.2m/s | -55.5°C | 2.3% | 121.1hPa | 2.7V | 00:00:00 | 00:00:00 | 00:00:00 | |
| SP9KGR-15 | 2026-09-05 12:04:17 | 49.03738 | 21.31508 | 86° | 97km/h | 15331m | 5.4m/s | -55.5°C | 2.3% | 121.3hPa | 2.7V | 00:00:00 | 00:00:00 | 00:00:00 | |
| SQ9EZE-13 | 2026-09-05 12:04:05 | 49.03688 | 21.31009 | 82° | 106km/h | 15268m | 6.0m/s | -56.1°C | 2.5% | 122.5hPa | 2.7V | 00:00:00 | 00:00:00 | 00:00:00 | |
| SP9KGR-15 | 2026-09-05 12:04:01 | 49.03682 | 21.30890 | 92° | 102km/h | 15254m | 5.7m/s | -56.0°C | 2.4% | 122.7hPa | 2.7V | 00:00:00 | 00:00:00 | 00:00:00 | |
| SQ9EZE-14 | 2026-09-05 12:03:57 | 49.03675 | 21.30743 | 81° | 91km/h | 15226m | 9.3m/s | -56.0°C | 2.4% | 123.3hPa | 2.7V | 00:00:00 | 00:00:00 | 00:00:00 | |
| SQ9EZE-13 | 2026-09-05 12:03:48 | 49.03632 | 21.30451 | 80° | 86km/h | 15175m | 5.9m/s | -55.6°C | 2.4% | 124.3hPa | 2.7V | 00:00:00 | 00:00:00 | 00:00:00 | |
| SP9KGR-15 | 2026-09-05 12:03:46 | 49.03622 | 21.30385 | 79° | 89km/h | 15165m | 4.6m/s | -55.6°C | 2.4% | 124.5hPa | 2.7V | 00:00:00 | 00:00:00 | 00:00:00 | |
| SQ9EZE-14 | 2026-09-05 12:03:41 | 49.03599 | 21.30219 | 77° | 88km/h | 15142m | 3.8m/s | -55.4°C | 2.4% | 124.9hPa | 2.7V | 00:00:00 | 00:00:00 | 00:00:00 | |
| SQ9EZE-13 | 2026-09-05 12:03:34 | 49.03559 | 21.29962 | 79° | 84km/h | 15103m | 3.7m/s | -55.4°C | 2.4% | 125.8hPa | 2.7V | 00:00:00 | 00:00:00 | 00:00:00 | |
| SP9KGR-15 | 2026-09-05 12:03:31 | 49.03550 | 21.29897 | 78° | 88km/h | 15092m | 5.9m/s | -55.4°C | 2.4% | 125.9hPa | 2.7V | 00:00:00 | 00:00:00 | 00:00:00 | |
| GYPAP8-17 | 2026-09-05 12:03:30 | 49.03545 | 21.29864 | 77° | 89km/h | 15087m | 3.6m/s | -55.3°C | 2.4% | 126.0hPa | 2.7V | 00:00:00 | 00:00:00 | 00:00:00 | |
| SQ9EZE-13 | 2026-09-05 12:03:18 | 49.03485 | 21.29480 | 87° | 78km/h | 15025m | 4.8m/s | -55.4°C | 2.6% | 127.2hPa | 2.7V | 00:00:00 | 00:00:00 | 00:00:00 | |
| SP9KGR-15 | 2026-09-05 12:03:15 | 49.03476 | 21.29390 | 76° | 82km/h | 15010m | 4.7m/s | -55.3°C | 2.5% | 127.5hPa | 2.7V | 00:00:00 | 00:00:00 | 00:00:00 | |
| SQ9EZE-13 | 2026-09-05 12:03:03 | 49.03419 | 21.28969 | 88° | 80km/h | 14924m | 6.7m/s | -55.2°C | 2.3% | 129.2hPa | 2.7V | 00:00:00 | 00:00:00 | 00:00:00 | |
| SP9KGR-15 | 2026-09-05 12:03:00 | 49.03416 | 21.28905 | 84° | 89km/h | 14913m | 4.2m/s | -55.1°C | 2.3% | 129.4hPa | 2.7V | 00:00:00 | 00:00:00 | 00:00:00 | |
| SQ9EZE-13 | 2026-09-05 12:02:46 | 49.03388 | 21.28401 | 88° | 97km/h | 14834m | 5.6m/s | -55.6°C | 2.5% | 131.1hPa | 2.7V | 00:00:00 | 00:00:00 | 00:00:00 | |
| SP9KGR-15 | 2026-09-05 12:02:45 | 49.03386 | 21.28325 | 89° | 100km/h | 14824m | 5.4m/s | -55.6°C | 2.5% | 131.3hPa | 2.7V | 00:00:00 | 00:00:00 | 00:00:00 | |
| SQ9EZE-13 | 2026-09-05 12:02:31 | 49.03361 | 21.27784 | 90° | 111km/h | 14749m | 6.2m/s | -55.5°C | 2.4% | 132.8hPa | 2.7V | 00:00:00 | 00:00:00 | 00:00:00 | |
| SP9KGR-15 | 2026-09-05 12:02:30 | 49.03360 | 21.27741 | 91° | 113km/h | 14743m | 5.7m/s | -55.6°C | 2.4% | 132.9hPa | 2.7V | 00:00:00 | 00:00:00 | 00:00:00 | |
| SQ9EZE-13 | 2026-09-05 12:02:15 | 49.03321 | 21.27136 | 85° | 117km/h | 14660m | 5.9m/s | -55.6°C | 2.5% | 134.6hPa | 2.7V | 00:00:00 | 00:00:00 | 00:00:00 | |
| SP9KGR-15 | 2026-09-05 12:02:14 | 49.03317 | 21.27091 | 83° | 117km/h | 14654m | 5.8m/s | -55.6°C | 2.5% | 134.8hPa | 2.7V | 00:00:00 | 00:00:00 | 00:00:00 | |
| SQ9EZE-13 | 2026-09-05 12:02:00 | 49.03255 | 21.26452 | 84° | 111km/h | 14561m | 5.8m/s | -54.8°C | 2.4% | 136.8hPa | 2.7V | 00:00:00 | 00:00:00 | 00:00:00 | |
| SP9KGR-15 | 2026-09-05 12:01:59 | 49.03251 | 21.26410 | 82° | 111km/h | 14556m | 3.5m/s | -54.8°C | 2.4% | 136.9hPa | 2.7V | 00:00:00 | 00:00:00 | 00:00:00 | |
| SQ9EZE-13 | 2026-09-05 12:01:43 | 49.03171 | 21.25773 | 83° | 111km/h | 14458m | 5.8m/s | -54.0°C | 2.3% | 138.9hPa | 2.7V | 00:00:00 | 00:00:00 | 00:00:00 | |
| SP9KGR-15 | 2026-09-05 12:01:40 | 49.03158 | 21.25649 | 79° | 110km/h | 14441m | 4.8m/s | -53.8°C | 2.3% | 139.3hPa | 2.7V | 00:00:00 | 00:00:00 | 00:00:00 | |
| SQ9EZE-13 | 2026-09-05 12:01:27 | 49.03086 | 21.25107 | 80° | 110km/h | 14367m | 5.6m/s | -53.2°C | 2.2% | 141.0hPa | 2.7V | 00:00:00 | 00:00:00 | 00:00:00 | |
| GYPAP8-17 | 2026-09-05 12:01:25 | 49.03069 | 21.24986 | 77° | 110km/h | 14352m | 6.7m/s | -53.2°C | 2.1% | 141.2hPa | 2.7V | 00:00:00 | 00:00:00 | 00:00:00 | |
| SQ9EZE-14 | 2026-09-05 12:01:05 | 49.02958 | 21.24218 | 80° | 115km/h | 14235m | 4.5m/s | -53.2°C | 2.1% | 143.8hPa | 2.7V | 00:00:00 | 00:00:00 | 00:00:00 | |
| SQ9EZE-13 | 2026-09-05 12:00:55 | 49.02913 | 21.23757 | 77° | 111km/h | 14174m | 5.3m/s | -53.1°C | 2.1% | 145.1hPa | 2.7V | 00:00:00 | 00:00:00 | 00:00:00 | |
| SQ9EZE-14 | 2026-09-05 12:00:50 | 49.02888 | 21.23593 | 81° | 108km/h | 14153m | 2.6m/s | -53.0°C | 2.1% | 145.6hPa | 2.7V | 00:00:00 | 00:00:00 | 00:00:00 | |
| SP9KGR-15 | 2026-09-05 12:00:40 | 49.02863 | 21.23119 | 87° | 102km/h | 14091m | 7.0m/s | -53.1°C | 2.1% | 147.1hPa | 2.7V | 00:00:00 | 00:00:00 | 00:00:00 | |
| SQ9EZE-13 | 2026-09-05 12:00:38 | 49.02861 | 21.23080 | 88° | 100km/h | 14085m | 4.7m/s | -53.2°C | 2.1% | 147.2hPa | 2.7V | 00:00:00 | 00:00:00 | 00:00:00 | |
| GYPAP8-17 | 2026-09-05 12:00:23 | 49.02821 | 21.22441 | 83° | 106km/h | 13997m | 6.0m/s | -53.1°C | 2.1% | 149.4hPa | 2.7V | 00:00:00 | 00:00:00 | 00:00:00 | |
| SP9KGR-15 | 2026-09-05 12:00:08 | 49.02782 | 21.21836 | 83° | 110km/h | 13920m | 3.6m/s | -53.2°C | 2.2% | 151.3hPa | 2.7V | 00:00:00 | 00:00:00 | 00:00:00 | |
| SQ9EZE-13 | 2026-09-05 12:00:07 | 49.02779 | 21.21795 | 83° | 110km/h | 13914m | 9.1m/s | -53.1°C | 2.2% | 151.4hPa | 2.7V | 00:00:00 | 00:00:00 | 00:00:00 | |
| SQ9EZE-13 | 2026-09-05 11:59:52 | 49.02735 | 21.21149 | 90° | 106km/h | 13806m | 5.5m/s | -54.1°C | 2.4% | 153.9hPa | 2.7V | 00:00:00 | 00:00:00 | 00:00:00 | |
| OE3JTB-15 | 2026-09-05 11:59:41 | 49.02723 | 21.20651 | 85° | 131km/h | 13731m | 5.4m/s | -54.1°C | 5.1% | 155.6hPa | 2.7V | 00:00:00 | 00:00:00 | 08:30:00 | |
| SQ9EZE-13 | 2026-09-05 11:59:21 | 49.02727 | 21.19890 | 93° | 100km/h | 13619m | 8.3m/s | -53.8°C | 2.5% | 158.3hPa | 2.9V | 00:00:00 | 00:00:00 | 00:00:00 | |
| SP9KGR-15 | 2026-09-05 11:59:20 | 49.02728 | 21.19851 | 93° | 106km/h | 13613m | 4.0m/s | -53.8°C | 2.5% | 158.5hPa | 2.9V | 00:00:00 | 00:00:00 | 00:00:00 | |
| GYPAP8-17 | 2026-09-05 11:59:18 | 49.02727 | 21.19769 | 89° | 108km/h | 13602m | 4.3m/s | -53.7°C | 2.4% | 158.8hPa | 2.9V | 00:00:00 | 00:00:00 | 00:00:00 | |
| SQ9EZE-13 | 2026-09-05 11:59:06 | 49.02751 | 21.19275 | 95° | 108km/h | 13529m | 5.8m/s | -53.0°C | 2.4% | 160.6hPa | 2.9V | 00:00:00 | 00:00:00 | 00:00:00 | |
| SP9KGR-15 | 2026-09-05 11:59:05 | 49.02754 | 21.19233 | 97° | 110km/h | 13522m | 7.7m/s | -52.9°C | 2.4% | 160.8hPa | 2.9V | 00:00:00 | 00:00:00 | 00:00:00 | |
| SQ9EZE-13 | 2026-09-05 11:58:50 | 49.02823 | 21.18587 | 100° | 111km/h | 13423m | 6.7m/s | -52.9°C | 2.5% | 163.4hPa | 2.9V | 00:00:00 | 00:00:00 | 00:00:00 | |
| SP9KGR-15 | 2026-09-05 11:58:49 | 49.02828 | 21.18544 | 100° | 115km/h | 13419m | 3.4m/s | -52.9°C | 2.5% | 163.5hPa | 2.9V | 00:00:00 | 00:00:00 | 00:00:00 | |
| SQ9EZE-14 | 2026-09-05 11:58:43 | 49.02868 | 21.18232 | 103° | 122km/h | 13377m | 4.9m/s | -53.1°C | 2.6% | 164.6hPa | 2.9V | 00:00:00 | 00:00:00 | 00:00:00 | |
| SP9KGR-15 | 2026-09-05 11:58:34 | 49.02906 | 21.17844 | 99° | 128km/h | 13324m | 4.9m/s | -53.2°C | 2.8% | 166.0hPa | 2.9V | 00:00:00 | 00:00:00 | 00:00:00 | |
| SQ9EZE-14 | 2026-09-05 11:58:26 | 49.02945 | 21.17454 | 101° | 133km/h | 13271m | 4.5m/s | -53.6°C | 2.9% | 167.3hPa | 2.9V | 00:00:00 | 00:00:00 | 00:00:00 | |
| SQ9EZE-13 | 2026-09-05 11:58:19 | 49.02977 | 21.17093 | 96° | 144km/h | 13232m | 8.2m/s | -53.6°C | 3.1% | 168.3hPa | 2.9V | 00:00:00 | 00:00:00 | 00:00:00 | |
| SP9KGR-15 | 2026-09-05 11:58:18 | 49.02980 | 21.17038 | 96° | 148km/h | 13225m | 5.0m/s | -53.5°C | 3.1% | 168.5hPa | 2.9V | 00:00:00 | 00:00:00 | 00:00:00 | |
| GYPAP8-17 | 2026-09-05 11:58:15 | 49.02993 | 21.16869 | 99° | 146km/h | 13208m | 6.5m/s | -53.5°C | 3.2% | 168.9hPa | 2.9V | 00:00:00 | 00:00:00 | 00:00:00 | |
| SP9KGR-15 | 2026-09-05 11:58:03 | 49.03058 | 21.16114 | 98° | 166km/h | 13121m | 9.5m/s | -55.5°C | 4.0% | 171.2hPa | 2.9V | 00:00:00 | 00:00:00 | 00:00:00 | |
| SQ9EZE-13 | 2026-09-05 11:57:48 | 49.03090 | 21.15227 | 92° | 162km/h | 13028m | 4.7m/s | -55.6°C | 4.5% | 173.6hPa | 2.9V | 00:00:00 | 00:00:00 | 00:00:00 | |
| SP9KGR-15 | 2026-09-05 11:57:47 | 49.03091 | 21.15165 | 92° | 161km/h | 13022m | 7.7m/s | -55.6°C | 4.6% | 173.8hPa | 2.9V | 00:00:00 | 00:00:00 | 00:00:00 | |
| SQ9EZE-13 | 2026-09-05 11:57:33 | 49.03080 | 21.14277 | 87° | 128km/h | 12921m | 6.9m/s | -55.1°C | 4.8% | 176.5hPa | 2.9V | 00:00:00 | 00:00:00 | 00:00:00 | |
| SP9KGR-15 | 2026-09-05 11:57:32 | 49.03077 | 21.14229 | 87° | 122km/h | 12914m | 6.8m/s | -55.1°C | 4.9% | 176.7hPa | 2.9V | 00:00:00 | 00:00:00 | 00:00:00 | |
| SQ9EZE-13 | 2026-09-05 11:57:17 | 49.03021 | 21.13484 | 85° | 148km/h | 12820m | 5.6m/s | -54.8°C | 5.8% | 179.3hPa | 2.9V | 00:00:00 | 00:00:00 | 00:00:00 | |
| SP9KGR-15 | 2026-09-05 11:57:15 | 49.03009 | 21.13373 | 79° | 144km/h | 12810m | 6.5m/s | -54.8°C | 6.0% | 179.6hPa | 2.9V | 00:00:00 | 00:00:00 | 00:00:00 | |
| GYPAP8-17 | 2026-09-05 11:57:12 | 49.02982 | 21.13215 | 75° | 142km/h | 12790m | 7.0m/s | -54.9°C | 6.2% | 180.2hPa | 2.9V | 00:00:00 | 00:00:00 | 00:00:00 | |
| SQ9EZE-13 | 2026-09-05 11:57:01 | 49.02922 | 21.12630 | 79° | 148km/h | 12717m | 9.5m/s | -54.7°C | 7.2% | 182.3hPa | 2.9V | 00:00:00 | 00:00:00 | 00:00:00 | |
| SP9KGR-15 | 2026-09-05 11:56:59 | 49.02905 | 21.12521 | 77° | 146km/h | 12702m | 5.9m/s | -54.7°C | 7.6% | 182.7hPa | 2.9V | 00:00:00 | 00:00:00 | 00:00:00 | |
| SP9KGR-15 | 2026-09-05 11:56:44 | 49.02755 | 21.11676 | 81° | 141km/h | 12601m | 7.4m/s | -55.4°C | 10.6% | 185.6hPa | 2.9V | 00:00:00 | 00:00:00 | 00:00:00 | |
| SP9KGR-15 | 2026-09-05 11:56:28 | 49.02647 | 21.10810 | 81° | 144km/h | 12498m | 7.4m/s | -55.7°C | 14.3% | 188.7hPa | 2.9V | 00:00:00 | 00:00:00 | 00:00:00 | |
| SP9KGR-15 | 2026-09-05 11:56:13 | 49.02598 | 21.10075 | 90° | 128km/h | 12387m | 6.4m/s | -56.8°C | 20.3% | 191.9hPa | 2.9V | 00:00:00 | 00:00:00 | 00:00:00 | |
| SQ9EZE-13 | 2026-09-05 11:56:12 | 49.02597 | 21.10026 | 88° | 128km/h | 12381m | 5.2m/s | -57.0°C | 21.0% | 192.1hPa | 2.9V | 00:00:00 | 00:00:00 | 00:00:00 | |
| GYPAP8-17 | 2026-09-05 11:56:08 | 49.02585 | 21.09824 | 85° | 137km/h | 12352m | 6.3m/s | -57.4°C | 22.9% | 193.0hPa | 2.9V | 00:00:00 | 00:00:00 | 00:00:00 | |
| SQ9EZE-14 | 2026-09-05 11:55:49 | 49.02542 | 21.08733 | 87° | 150km/h | 12226m | 8.9m/s | -59.0°C | 31.9% | 196.9hPa | 2.9V | 00:00:00 | 00:00:00 | 00:00:00 | |
| SQ9EZE-13 | 2026-09-05 11:55:41 | 49.02503 | 21.08287 | 84° | 148km/h | 12176m | 4.2m/s | -59.1°C | 33.3% | 198.5hPa | 2.9V | 00:00:00 | 00:00:00 | 00:00:00 | |
| SQ9EZE-14 | 2026-09-05 11:55:34 | 49.02472 | 21.07827 | 83° | 159km/h | 12119m | 4.4m/s | -59.1°C | 32.7% | 200.3hPa | 2.9V | 00:00:00 | 00:00:00 | 00:00:00 | |
| SQ9EZE-13 | 2026-09-05 11:55:25 | 49.02444 | 21.07369 | 86° | 142km/h | 12077m | 3.9m/s | -58.9°C | 34.0% | 201.6hPa | 2.9V | 00:00:00 | 00:00:00 | 00:00:00 | |
| SP9KGR-15 | 2026-09-05 11:55:10 | 49.02396 | 21.06526 | 88° | 139km/h | 12000m | 4.5m/s | -58.9°C | 39.2% | 204.1hPa | 2.9V | 00:00:00 | 00:00:00 | 00:00:00 | |
| GYPAP8-17 | 2026-09-05 11:54:57 | 49.02378 | 21.05767 | 88° | 150km/h | 11930m | 7.3m/s | -58.5°C | 43.8% | 206.4hPa | 2.9V | 00:00:00 | 00:00:00 | 00:00:00 | |
| SP9KGR-15 | 2026-09-05 11:54:54 | 49.02372 | 21.05598 | 87° | 146km/h | 11912m | 5.4m/s | -58.4°C | 44.2% | 206.9hPa | 2.9V | 00:00:00 | 00:00:00 | 00:00:00 | |
| SQ9EZE-13 | 2026-09-05 11:54:51 | 49.02369 | 21.05427 | 92° | 148km/h | 11894m | 7.1m/s | -58.2°C | 44.3% | 207.5hPa | 2.9V | 00:00:00 | 00:00:00 | 00:00:00 | |
| SP9KGR-15 | 2026-09-05 11:54:38 | 49.02342 | 21.04664 | 86° | 142km/h | 11807m | 8.4m/s | -58.2°C | 52.9% | 210.3hPa | 2.9V | 00:00:00 | 00:00:00 | 00:00:00 | |
| SQ9EZE-13 | 2026-09-05 11:54:36 | 49.02333 | 21.04554 | 81° | 146km/h | 11792m | 6.0m/s | -58.2°C | 55.1% | 210.9hPa | 2.9V | 00:00:00 | 00:00:00 | 00:00:00 | |
| SP9KGR-15 | 2026-09-05 11:54:22 | 49.02249 | 21.03788 | 85° | 144km/h | 11699m | 6.9m/s | -58.5°C | 60.1% | 214.0hPa | 2.9V | 00:00:00 | 00:00:00 | 00:00:00 | |
| SP9KGR-15 | 2026-09-05 11:54:07 | 49.02169 | 21.02917 | 83° | 162km/h | 11604m | 4.8m/s | -57.5°C | 59.7% | 217.2hPa | 2.9V | 00:00:00 | 00:00:00 | 00:00:00 | |
| SQ9EZE-13 | 2026-09-05 11:54:06 | 49.02160 | 21.02792 | 85° | 164km/h | 11593m | 6.5m/s | -57.5°C | 60.3% | 217.6hPa | 2.9V | 00:00:00 | 00:00:00 | 00:00:00 | |
| SP9KGR-15 | 2026-09-05 11:53:51 | 49.02116 | 21.01967 | 86° | 159km/h | 11510m | 7.9m/s | -56.8°C | 54.3% | 220.6hPa | 2.9V | 00:00:00 | 00:00:00 | 00:00:00 | |
| SQ9EZE-13 | 2026-09-05 11:53:49 | 49.02106 | 21.01847 | 82° | 157km/h | 11497m | 4.3m/s | -56.7°C | 54.4% | 221.1hPa | 2.9V | 00:00:00 | 00:00:00 | 00:00:00 | |
| SP9KGR-15 | 2026-09-05 11:53:36 | 49.02030 | 21.01057 | 83° | 148km/h | 11427m | 4.4m/s | -56.2°C | 51.1% | 223.6hPa | 2.9V | 00:00:00 | 00:00:00 | 00:00:00 | |
| SQ9EZE-14 | 2026-09-05 11:53:33 | 49.02011 | 21.00847 | 83° | 137km/h | 11411m | 3.1m/s | -56.0°C | 50.4% | 224.2hPa | 2.9V | 00:00:00 | 00:00:00 | 00:00:00 | |
| SP9KGR-15 | 2026-09-05 11:53:20 | 49.01931 | 21.00107 | 83° | 164km/h | 11323m | 9.7m/s | -55.6°C | 37.3% | 227.3hPa | 2.9V | 00:00:00 | 00:00:00 | 00:00:00 | |
| SQ9EZE-13 | 2026-09-05 11:53:17 | 49.01911 | 20.99921 | 79° | 159km/h | 11297m | 6.8m/s | -55.6°C | 35.9% | 228.2hPa | 2.9V | 00:00:00 | 00:00:00 | 00:00:00 | |
| SP9KGR-15 | 2026-09-05 11:53:04 | 49.01817 | 20.99161 | 83° | 150km/h | 11217m | 5.9m/s | -55.0°C | 34.2% | 231.1hPa | 2.9V | 00:00:00 | 00:00:00 | 00:00:00 | |
| SQ9EZE-13 | 2026-09-05 11:53:01 | 49.01806 | 20.98992 | 88° | 148km/h | 11200m | 5.2m/s | -54.8°C | 34.4% | 231.7hPa | 2.9V | 00:00:00 | 00:00:00 | 00:00:00 | |
| GYPAP8-17 | 2026-09-05 11:52:53 | 49.01786 | 20.98502 | 87° | 168km/h | 11139m | 9.6m/s | -54.3°C | 32.3% | 233.9hPa | 2.9V | 00:00:00 | 00:00:00 | 00:00:00 | |
| SP9KGR-15 | 2026-09-05 11:52:49 | 49.01766 | 20.98244 | 82° | 166km/h | 11106m | 5.7m/s | -54.0°C | 32.3% | 235.0hPa | 2.9V | 00:00:00 | 00:00:00 | 00:00:00 | |
| SQ9EZE-13 | 2026-09-05 11:52:45 | 49.01732 | 20.97998 | 78° | 162km/h | 11078m | 6.8m/s | -53.7°C | 31.5% | 236.0hPa | 2.9V | 00:00:00 | 00:00:00 | 00:00:00 | |
| SP9KGR-15 | 2026-09-05 11:52:33 | 49.01648 | 20.97262 | 84° | 151km/h | 10995m | 3.3m/s | -53.0°C | 0% | 0hPa | 2.9V | 00:00:00 | 00:00:00 | 00:00:00 | |
| SQ9EZE-13 | 2026-09-05 11:52:29 | 49.01632 | 20.97038 | 84° | 141km/h | 10974m | 4.2m/s | -52.8°C | 29.7% | 239.9hPa | 2.9V | 00:00:00 | 00:00:00 | 00:00:00 | |
| SP9KGR-15 | 2026-09-05 11:52:18 | 49.01563 | 20.96405 | 79° | 159km/h | 10905m | 4.4m/s | -52.1°C | 0% | 0hPa | 2.9V | 00:00:00 | 00:00:00 | 00:00:00 | |
| SQ9EZE-13 | 2026-09-05 11:52:14 | 49.01535 | 20.96169 | 83° | 155km/h | 10883m | 5.2m/s | -52.0°C | 28.0% | 243.4hPa | 2.9V | 00:00:00 | 00:00:00 | 00:00:00 | |
| GYPAP8-17 | 2026-09-05 11:52:02 | 49.01464 | 20.95460 | 89° | 161km/h | 10825m | 5.6m/s | -51.5°C | 26.8% | 245.5hPa | 2.9V | 00:00:00 | 00:00:00 | 00:00:00 | |
| SQ9EZE-13 | 2026-09-05 11:51:58 | 49.01455 | 20.95210 | 85° | 161km/h | 10807m | 4.2m/s | -51.3°C | 25.7% | 246.3hPa | 2.9V | 00:00:00 | 00:00:00 | 00:00:00 | |
| SQ9EZE-13 | 2026-09-05 11:51:42 | 49.01380 | 20.94253 | 91° | 151km/h | 10714m | 3.3m/s | -50.6°C | 25.3% | 249.8hPa | 2.9V | 00:00:00 | 00:00:00 | 00:00:00 | |
| SQ9EZE-13 | 2026-09-05 11:51:26 | 49.01290 | 20.93307 | 81° | 162km/h | 10615m | 6.9m/s | -49.7°C | 22.3% | 253.7hPa | 2.9V | 00:00:00 | 00:00:00 | 00:00:00 | |
| SQ9EZE-14 | 2026-09-05 11:51:16 | 49.01237 | 20.92733 | 83° | 161km/h | 10547m | 6.8m/s | -49.0°C | 20.6% | 256.4hPa | 2.9V | 00:00:00 | 00:00:00 | 00:00:00 | |
| SQ9EZE-13 | 2026-09-05 11:51:11 | 49.01216 | 20.92434 | 84° | 146km/h | 10519m | 7.3m/s | -48.8°C | 19.9% | 257.6hPa | 2.9V | 00:00:00 | 00:00:00 | 00:00:00 | |
| SQ9EZE-14 | 2026-09-05 11:51:01 | 49.01168 | 20.91928 | 82° | 139km/h | 10461m | 8.6m/s | -48.3°C | 19.3% | 259.8hPa | 2.9V | 00:00:00 | 00:00:00 | 00:00:00 | |
| SQ9EZE-13 | 2026-09-05 11:50:56 | 49.01133 | 20.91657 | 76° | 139km/h | 10424m | 4.8m/s | -47.9°C | 18.6% | 261.2hPa | 2.9V | 00:00:00 | 00:00:00 | 00:00:00 | |
| OE3JTB-15 | 2026-09-05 11:50:42 | 49.01059 | 20.90867 | 80° | 141km/h | 10329m | 9.5m/s | -47.0°C | 19.3% | 265.0hPa | 2.9V | 00:00:00 | 00:00:00 | 00:00:00 | |
| SQ9EZE-13 | 2026-09-05 11:50:40 | 49.01052 | 20.90813 | 79° | 141km/h | 10320m | 9.4m/s | -47.0°C | 16.5% | 265.4hPa | 2.9V | 00:00:00 | 00:00:00 | 00:00:00 | |
| SQ9EZE-13 | 2026-09-05 11:50:23 | 49.00982 | 20.89887 | 85° | 141km/h | 10212m | 8.0m/s | -46.0°C | 15.7% | 269.7hPa | 2.9V | 00:00:00 | 00:00:00 | 00:00:00 | |
| GYPAP8-17 | 2026-09-05 11:50:16 | 49.00934 | 20.89537 | 81° | 139km/h | 10168m | 5.2m/s | -45.6°C | 15.3% | 271.4hPa | 2.9V | 00:00:00 | 00:00:00 | 00:00:00 | |
| SQ9EZE-13 | 2026-09-05 11:50:07 | 49.00918 | 20.89081 | 88° | 122km/h | 10110m | 4.8m/s | -45.1°C | 15.3% | 273.8hPa | 2.9V | 00:00:00 | 00:00:00 | 00:00:00 | |
| SQ9EZE-13 | 2026-09-05 11:49:52 | 49.00843 | 20.88309 | 80° | 144km/h | 10017m | 7.2m/s | -44.3°C | 14.0% | 277.7hPa | 2.9V | 00:00:00 | 00:00:00 | 00:00:00 | |
| OE3JTB-15 | 2026-09-05 11:49:44 | 49.00816 | 20.87819 | 91° | 137km/h | 9960m | 4.4m/s | -43.7°C | 16.3% | 280.0hPa | 2.9V | 00:00:00 | 00:00:00 | 00:00:00 | |
| SQ9EZE-13 | 2026-09-05 11:49:36 | 49.00807 | 20.87449 | 84° | 126km/h | 9909m | 7.0m/s | -43.3°C | 12.8% | 282.1hPa | 0V | 00:00:00 | 00:00:00 | 00:00:00 | |
| SQ9EZE-13 | 2026-09-05 11:49:20 | 49.00758 | 20.86610 | 81° | 130km/h | 9805m | 9.8m/s | -42.3°C | 11.6% | 286.6hPa | 0V | 00:00:00 | 00:00:00 | 00:00:00 | |
| OE3JTB-15 | 2026-09-05 11:49:15 | 49.00730 | 20.86303 | 88° | 135km/h | 9759m | 5.9m/s | 0°C | 0% | 0hPa | 0V | 00:00:00 | 00:00:00 | 00:00:00 | |
| GYPAP8-17 | 2026-09-05 11:49:07 | 49.00726 | 20.85929 | 87° | 126km/h | 9719m | 6.8m/s | -41.4°C | 11.1% | 290.2hPa | 0V | 00:00:00 | 00:00:00 | 00:00:00 | |
| SQ9EZE-13 | 2026-09-05 11:49:04 | 49.00717 | 20.85782 | 84° | 131km/h | 9695m | 9.2m/s | -41.2°C | 11.3% | 291.3hPa | 0V | 00:00:00 | 00:00:00 | 00:00:00 | |
| SQ9EZE-14 | 2026-09-05 11:49:02 | 49.00707 | 20.85629 | 86° | 133km/h | 9674m | 6.7m/s | -41.1°C | 11.3% | 292.2hPa | 0V | 00:00:00 | 00:00:00 | 00:00:00 | |
| SQ9EZE-13 | 2026-09-05 11:48:48 | 49.00701 | 20.84966 | 90° | 139km/h | 9597m | 8.3m/s | -40.6°C | 11.1% | 295.5hPa | 0V | 00:00:00 | 00:00:00 | 00:00:00 | |
| OE3JTB-15 | 2026-09-05 11:48:45 | 49.00684 | 20.84753 | 80° | 139km/h | 9571m | 5.5m/s | 0°C | 0% | 0hPa | 0V | 00:00:00 | 01:27:42 | 00:00:00 | |
| SQ9EZE-13 | 2026-09-05 11:48:34 | 49.00668 | 20.84172 | 82° | 150km/h | 9500m | 6.4m/s | -39.6°C | 10.3% | 299.7hPa | 0V | 00:00:00 | 00:00:00 | 00:00:00 | |
| SQ9EZE-13 | 2026-09-05 11:48:17 | 49.00648 | 20.83252 | 87° | 150km/h | 9406m | 5.3m/s | -38.7°C | 9.9% | 303.8hPa | 0V | 00:00:00 | 00:00:00 | 00:00:00 | |
| GYPAP8-17 | 2026-09-05 11:48:02 | 49.00644 | 20.82376 | 90° | 144km/h | 9294m | 4.9m/s | -37.6°C | 8.9% | 308.8hPa | 0V | 00:00:00 | 00:00:00 | 00:00:00 | |
| OE3JTB-15 | 2026-09-05 11:47:58 | 49.00631 | 20.82169 | 83° | 137km/h | 9268m | 7.0m/s | 0°C | 0% | 0hPa | 0V | 00:00:00 | 00:00:00 | 00:00:00 | |
| SQ9EZE-13 | 2026-09-05 11:47:44 | 49.00638 | 20.81421 | 96° | 142km/h | 9167m | 7.1m/s | -36.6°C | 8.1% | 314.5hPa | 0V | 00:00:00 | 00:00:00 | 00:00:00 | |
| SQ9EZE-13 | 2026-09-05 11:47:29 | 49.00651 | 20.80580 | 94° | 146km/h | 9060m | 8.3m/s | -35.6°C | 7.4% | 319.4hPa | 0V | 00:00:00 | 00:00:00 | 00:00:00 | |
| SQ9EZE-13 | 2026-09-05 11:47:14 | 49.00708 | 20.79728 | 93° | 148km/h | 8951m | 4.6m/s | -34.6°C | 7.0% | 324.5hPa | 0V | 00:00:00 | 00:00:00 | 00:00:00 | |
| SQ9EZE-13 | 2026-09-05 11:46:58 | 49.00763 | 20.78859 | 88° | 151km/h | 8842m | 8.1m/s | -33.6°C | 6.5% | 329.5hPa | 0V | 00:00:00 | 00:00:00 | 00:00:00 | |
| SQ9EZE-14 | 2026-09-05 11:46:44 | 49.00814 | 20.78056 | 97° | 146km/h | 8743m | 6.3m/s | -32.7°C | 6.4% | 334.3hPa | 0V | 00:00:00 | 00:00:00 | 00:00:00 | |
| SQ9EZE-13 | 2026-09-05 11:46:43 | 49.00817 | 20.78002 | 95° | 139km/h | 8736m | 8.2m/s | -32.7°C | 6.4% | 334.6hPa | 0V | 00:00:00 | 00:00:00 | 00:00:00 | |
| SQ9EZE-14 | 2026-09-05 11:46:28 | 49.00892 | 20.77156 | 97° | 135km/h | 8629m | 8.5m/s | -31.7°C | 6.5% | 339.7hPa | 0V | 00:00:00 | 00:00:00 | 00:00:00 | |
| GYPAP8-17 | 2026-09-05 11:46:22 | 49.00919 | 20.76808 | 99° | 172km/h | 8594m | 5.1m/s | -31.4°C | 6.5% | 341.5hPa | 0V | 00:00:00 | 00:00:00 | 00:00:00 | |
| SQ9EZE-13 | 2026-09-05 11:46:12 | 49.00971 | 20.76217 | 95° | 139km/h | 8530m | 4.9m/s | -30.8°C | 6.4% | 344.6hPa | 0V | 00:00:00 | 00:00:00 | 00:00:00 | |
| SQ9EZE-13 | 2026-09-05 11:45:40 | 49.01153 | 20.74400 | 102° | 166km/h | 8305m | 3.3m/s | -29.3°C | 5.2% | 355.5hPa | 0V | 00:00:00 | 00:00:00 | 00:00:00 | |
| GYPAP8-17 | 2026-09-05 11:45:27 | 49.01253 | 20.73638 | 104° | 148km/h | 8231m | 7.4m/s | -28.8°C | 5.0% | 359.2hPa | 0V | 00:00:00 | 00:00:00 | 00:00:00 | |
| SQ9EZE-13 | 2026-09-05 11:45:24 | 49.01265 | 20.73528 | 97° | 142km/h | 8216m | 8.5m/s | -28.7°C | 4.8% | 359.9hPa | 0V | 00:00:00 | 00:00:00 | 00:00:00 | |
| SQ9EZE-13 | 2026-09-05 11:45:08 | 49.01349 | 20.72646 | 102° | 131km/h | 8121m | 3.1m/s | -28.1°C | 5.0% | 364.7hPa | 0V | 00:00:00 | 00:00:00 | 00:00:00 | |
| SQ9EZE-13 | 2026-09-05 11:44:52 | 49.01412 | 20.71792 | 95° | 124km/h | 8021m | 6.8m/s | -27.7°C | 4.9% | 369.8hPa | 0V | 00:00:00 | 00:00:00 | 00:00:00 | |
| SQ9EZE-13 | 2026-09-05 11:44:37 | 49.01466 | 20.71062 | 94° | 126km/h | 7939m | 4.9m/s | -27.3°C | 5.1% | 374.1hPa | 0V | 00:00:00 | 00:00:00 | 00:00:00 | |
| SQ9EZE-14 | 2026-09-05 11:44:28 | 49.01488 | 20.70647 | 99° | 137km/h | 7887m | 5.6m/s | -26.9°C | 5.3% | 377.0hPa | 0V | 00:00:00 | 00:00:00 | 00:00:00 | |
| GYPAP8-17 | 2026-09-05 11:44:22 | 49.01492 | 20.70316 | 89° | 137km/h | 7853m | 6.3m/s | -26.7°C | 5.5% | 378.8hPa | 0V | 00:00:00 | 00:00:00 | 00:00:00 | |
| SQ9EZE-13 | 2026-09-05 11:44:21 | 49.01492 | 20.70264 | 91° | 130km/h | 7847m | 6.7m/s | -26.6°C | 5.4% | 379.0hPa | 0V | 00:00:00 | 00:00:00 | 00:00:00 | |
| SQ9EZE-14 | 2026-09-05 11:44:12 | 49.01527 | 20.69827 | 99° | 137km/h | 7797m | 6.7m/s | -26.2°C | 5.5% | 381.5hPa | 0V | 00:00:00 | 00:00:00 | 00:00:00 | |
| SQ9EZE-13 | 2026-09-05 11:44:06 | 49.01548 | 20.69520 | 100° | 124km/h | 7764m | 7.4m/s | -26.0°C | 5.2% | 383.3hPa | 0V | 00:00:00 | 00:00:00 | 00:00:00 | |
| SQ9EZE-13 | 2026-09-05 11:43:50 | 49.01543 | 20.68743 | 94° | 137km/h | 7686m | 3.7m/s | -25.4°C | 5.0% | 387.5hPa | 0V | 00:00:00 | 00:00:00 | 00:00:00 | |
| SQ9EZE-13 | 2026-09-05 11:43:34 | 49.01512 | 20.67916 | 91° | 133km/h | 7600m | 3.4m/s | -24.6°C | 4.6% | 392.1hPa | 0V | 00:00:00 | 00:00:00 | 00:00:00 | |
| GYPAP8-17 | 2026-09-05 11:43:20 | 49.01491 | 20.67179 | 92° | 131km/h | 7524m | 8.7m/s | -24.3°C | 5.2% | 396.2hPa | 0V | 00:00:00 | 00:00:00 | 00:00:00 | |
| SQ9EZE-13 | 2026-09-05 11:43:19 | 49.01492 | 20.67127 | 92° | 135km/h | 7516m | 7.3m/s | -24.4°C | 5.4% | 396.6hPa | 0V | 00:00:00 | 00:00:00 | 00:00:00 | |
| SQ9EZE-13 | 2026-09-05 11:43:06 | 49.01491 | 20.66380 | 86° | 117km/h | 7439m | 5.9m/s | -24.4°C | 6.6% | 400.8hPa | 0V | 00:00:00 | 00:00:00 | 00:00:00 | |
| SQ9EZE-13 | 2026-09-05 11:42:50 | 49.01503 | 20.65618 | 94° | 141km/h | 7369m | 5.0m/s | -24.1°C | 7.6% | 404.5hPa | 0V | 00:00:00 | 00:00:00 | 00:00:00 | |
| SQ9EZE-13 | 2026-09-05 11:42:34 | 49.01472 | 20.64840 | 93° | 131km/h | 7293m | 7.2m/s | -23.6°C | 7.8% | 408.8hPa | 0V | 00:00:00 | 00:00:00 | 00:00:00 | |
| SQ9EZE-13 | 2026-09-05 11:42:19 | 49.01403 | 20.64033 | 90° | 122km/h | 7195m | 4.6m/s | -22.7°C | 7.0% | 414.4hPa | 0V | 00:00:00 | 00:00:00 | 00:00:00 | |
| GYPAP8-17 | 2026-09-05 11:42:13 | 49.01393 | 20.63807 | 87° | 113km/h | 7175m | 4.4m/s | -22.6°C | 6.8% | 415.5hPa | 0V | 00:00:00 | 00:00:00 | 00:00:00 | |
| SQ9EZE-14 | 2026-09-05 11:42:12 | 49.01390 | 20.63763 | 87° | 115km/h | 7172m | 2.6m/s | -22.5°C | 6.8% | 415.8hPa | 0V | 00:00:00 | 00:00:00 | 00:00:00 | |
| SQ9EZE-13 | 2026-09-05 11:42:03 | 49.01352 | 20.63332 | 89° | 126km/h | 7129m | 6.1m/s | -22.2°C | 7.2% | 418.2hPa | 0V | 00:00:00 | 00:00:00 | 00:00:00 | |
| SQ9EZE-14 | 2026-09-05 11:41:56 | 49.01328 | 20.63013 | 83° | 133km/h | 7091m | 4.0m/s | -22.0°C | 0% | 420.4hPa | 0V | 00:00:00 | 00:00:00 | 00:00:00 | |
| OE3JTB-15 | 2026-09-05 11:41:52 | 49.01301 | 20.62753 | 80° | 135km/h | 7059m | 6.4m/s | 0°C | 0% | 0hPa | 0V | 00:00:00 | 00:00:00 | 00:00:00 | |
| SQ9EZE-13 | 2026-09-05 11:41:47 | 49.01273 | 20.62548 | 78° | 137km/h | 7039m | 4.7m/s | -21.5°C | 7.4% | 423.3hPa | 0V | 00:00:00 | 00:00:00 | 00:00:00 | |
| SQ9EZE-13 | 2026-09-05 11:41:32 | 49.01225 | 20.61795 | 85° | 142km/h | 6969m | 4.5m/s | -20.9°C | 7.3% | 427.4hPa | 0V | 00:00:00 | 00:00:00 | 00:00:00 | |
| OE3JTB-15 | 2026-09-05 11:41:22 | 49.01205 | 20.61263 | 82° | 128km/h | 6903m | 6.0m/s | 0°C | 0% | 0hPa | 0V | 00:00:00 | 01:20:19 | 00:00:00 | |
| GYPAP8-17 | 2026-09-05 11:41:16 | 49.01182 | 20.61010 | 84° | 119km/h | 6873m | 5.3m/s | -20.0°C | 6.9% | 433.0hPa | 0V | 00:00:00 | 00:00:00 | 00:00:00 | |
| SQ9EZE-13 | 2026-09-05 11:41:01 | 49.01163 | 20.60278 | 93° | 122km/h | 6796m | 4.8m/s | -19.5°C | 5.5% | 437.4hPa | 0V | 00:00:00 | 00:00:00 | 00:00:00 | |
| SQ9EZE-13 | 2026-09-05 11:40:46 | 49.01138 | 20.59553 | 84° | 130km/h | 6719m | 6.5m/s | -19.0°C | 5.4% | 442.0hPa | 0V | 00:00:00 | 00:00:00 | 00:00:00 | |
| GYPAP8-17 | 2026-09-05 11:40:31 | 49.01136 | 20.58814 | 80° | 128km/h | 6631m | 2.6m/s | -18.4°C | 5.1% | 447.2hPa | 0V | 00:00:00 | 00:00:00 | 00:00:00 | |
| SQ9EZE-13 | 2026-09-05 11:40:28 | 49.01123 | 20.58668 | 88° | 128km/h | 6620m | 4.5m/s | -18.4°C | 5.1% | 447.9hPa | 0V | 00:00:00 | 00:00:00 | 00:00:00 | |
| SQ9EZE-13 | 2026-09-05 11:40:12 | 49.01107 | 20.57877 | 80° | 113km/h | 6529m | 7.2m/s | -17.7°C | 4.5% | 453.3hPa | 0V | 00:00:00 | 00:00:00 | 00:00:00 | |
| SQ9EZE-13 | 2026-09-05 11:39:57 | 49.01079 | 20.57214 | 86° | 124km/h | 6434m | 8.1m/s | -16.8°C | 4.1% | 458.9hPa | 0V | 00:00:00 | 00:00:00 | 00:00:00 | |
| SQ9EZE-14 | 2026-09-05 11:39:55 | 49.01076 | 20.57115 | 90° | 131km/h | 6420m | 5.5m/s | -16.7°C | 0% | 0hPa | 0V | 00:00:00 | 00:00:00 | 00:00:00 | |
| SQ9EZE-13 | 2026-09-05 11:39:41 | 49.01057 | 20.56477 | 89° | 126km/h | 6346m | 4.4m/s | -16.3°C | 3.3% | 464.3hPa | 0V | 00:00:00 | 00:00:00 | 00:00:00 | |
| SQ9EZE-14 | 2026-09-05 11:39:40 | 49.01055 | 20.56430 | 87° | 120km/h | 6341m | 5.0m/s | -16.3°C | 0% | 0hPa | 0V | 00:00:00 | 00:00:00 | 00:00:00 | |
| GYPAP8-17 | 2026-09-05 11:39:39 | 49.01049 | 20.56340 | 84° | 113km/h | 6329m | 6.4m/s | -16.5°C | 3.1% | 465.3hPa | 0V | 00:00:00 | 00:00:00 | 00:00:00 | |
| SQ9EZE-13 | 2026-09-05 11:39:24 | 49.01002 | 20.55683 | 83° | 122km/h | 6260m | 3.7m/s | -16.1°C | 4.6% | 469.7hPa | 0V | 00:00:00 | 00:00:00 | 00:00:00 | |
| SQ9EZE-13 | 2026-09-05 11:39:09 | 49.00973 | 20.54985 | 97° | 117km/h | 6189m | 3.1m/s | -16.0°C | 3.9% | 474.0hPa | 0V | 00:00:00 | 00:00:00 | 00:00:00 | |
| OM5KV | 2026-09-05 11:39:01 | 49.00960 | 20.54601 | 88° | 139km/h | 6144m | 2.8m/s | -15.9°C | 4.2% | 476.9hPa | 0V | 00:00:00 | 00:00:00 | 00:00:00 | |
| SQ9EZE-13 | 2026-09-05 11:38:54 | 49.00955 | 20.54215 | 92° | 139km/h | 6108m | 5.5m/s | -15.7°C | 4.0% | 479.2hPa | 0V | 00:00:00 | 00:00:00 | 00:00:00 | |
| OM5KV | 2026-09-05 11:38:53 | 49.00957 | 20.54162 | 95° | 135km/h | 6102m | 5.9m/s | -15.6°C | 3.8% | 479.6hPa | 0V | 00:00:00 | 00:00:00 | 00:00:00 | |
| OM5KV | 2026-09-05 11:38:47 | 49.00975 | 20.53868 | 90° | 128km/h | 6071m | 5.8m/s | -15.4°C | 3.5% | 481.6hPa | 0V | 00:00:00 | 00:00:00 | 00:00:00 | |
| OM5KV | 2026-09-05 11:38:44 | 49.00970 | 20.53714 | 87° | 137km/h | 6053m | 3.6m/s | -15.3°C | 3.0% | 482.6hPa | 0V | 00:00:00 | 00:00:00 | 00:00:00 | |
| SQ9EZE-13 | 2026-09-05 11:38:38 | 49.00971 | 20.53410 | 94° | 117km/h | 6025m | 8.6m/s | -15.2°C | 2.9% | 484.4hPa | 0V | 00:00:00 | 00:00:00 | 00:00:00 | |
| OM5KV | 2026-09-05 11:38:35 | 49.00972 | 20.53277 | 88° | 119km/h | 6006m | 4.6m/s | -15.0°C | 3.0% | 485.7hPa | 0V | 00:00:00 | 00:00:00 | 00:00:00 | |
| OM5KV | 2026-09-05 11:38:32 | 49.00966 | 20.53128 | 87° | 137km/h | 5993m | 7.2m/s | -14.9°C | 2.9% | 486.5hPa | 0V | 00:00:00 | 00:00:00 | 00:00:00 | |
| OM5KV | 2026-09-05 11:38:31 | 49.00964 | 20.53075 | 87° | 139km/h | 5985m | 8.0m/s | -14.8°C | 2.9% | 486.9hPa | 0V | 00:00:00 | 00:00:00 | 00:00:00 | |
| SQ9EZE-13 | 2026-09-05 11:38:22 | 49.00987 | 20.52621 | 95° | 131km/h | 5930m | 4.2m/s | -14.6°C | 15.3% | 490.7hPa | 0V | 00:00:00 | 00:00:00 | 00:00:00 | |
| GYPAP8-17 | 2026-09-05 11:38:20 | 49.00990 | 20.52515 | 92° | 142km/h | 5918m | 5.7m/s | 0°C | 0% | 491.3hPa | 0V | 00:00:00 | 00:00:00 | 00:00:00 | |
| OM5KV | 2026-09-05 11:38:09 | 49.00983 | 20.51948 | 85° | 117km/h | 5860m | 6.8m/s | -14.4°C | 39.1% | 495.2hPa | 0V | 00:00:00 | 00:00:00 | 00:00:00 | |
| SQ9EZE-13 | 2026-09-05 11:38:06 | 49.00972 | 20.51808 | 84° | 128km/h | 5844m | 4.3m/s | -14.3°C | 53.2% | 496.2hPa | 0V | 00:00:00 | 00:00:00 | 00:00:00 | |
| OM5KV | 2026-09-05 11:38:03 | 49.00964 | 20.51653 | 90° | 141km/h | 5829m | 4.9m/s | -14.3°C | 61.3% | 497.1hPa | 0V | 00:00:00 | 00:00:00 | 00:00:00 | |
| OM5KV | 2026-09-05 11:38:00 | 49.00971 | 20.51494 | 98° | 137km/h | 5813m | 7.5m/s | -14.3°C | 71.3% | 498.1hPa | 0V | 00:00:00 | 00:00:00 | 00:00:00 | |
| OM5KV | 2026-09-05 11:37:57 | 49.00977 | 20.51345 | 89° | 124km/h | 5793m | 5.8m/s | -14.1°C | 72.9% | 499.6hPa | 0V | 00:00:00 | 00:00:00 | 00:00:00 | |
| OM5KV | 2026-09-05 11:37:56 | 49.00975 | 20.51297 | 88° | 122km/h | 5787m | 6.3m/s | -14.0°C | 73.2% | 499.9hPa | 0V | 00:00:00 | 00:00:00 | 00:00:00 | |
| SQ9EZE-13 | 2026-09-05 11:37:50 | 49.00968 | 20.51003 | 93° | 144km/h | 5740m | 6.9m/s | -13.6°C | 77.5% | 502.9hPa | 0V | 00:00:00 | 00:00:00 | 00:00:00 | |
| OM5KV | 2026-09-05 11:37:43 | 49.00953 | 20.50640 | 86° | 122km/h | 5692m | 5.8m/s | -13.3°C | 82.7% | 506.1hPa | 0V | 00:00:00 | 00:00:00 | 00:00:00 | |
| OM5KV | 2026-09-05 11:37:40 | 49.00944 | 20.50494 | 86° | 137km/h | 5674m | 4.8m/s | -13.2°C | 0% | 507.4hPa | 0V | 00:00:00 | 00:00:00 | 00:00:00 | |
| OM5KV | 2026-09-05 11:37:37 | 49.00936 | 20.50328 | 87° | 146km/h | 5659m | 6.3m/s | -13.1°C | 88.4% | 508.3hPa | 0V | 00:00:00 | 00:00:00 | 00:00:00 | |
| OM5KV | 2026-09-05 11:37:34 | 49.00928 | 20.50168 | 86° | 133km/h | 5640m | 8.4m/s | -12.9°C | 88.9% | 509.7hPa | 0V | 00:00:00 | 00:00:00 | 00:00:00 | |
| OM5KV | 2026-09-05 11:37:31 | 49.00917 | 20.50025 | 85° | 119km/h | 5621m | 5.2m/s | -12.8°C | 92.5% | 511.0hPa | 0V | 00:00:00 | 00:00:00 | 00:00:00 | |
| OM5KV | 2026-09-05 11:37:29 | 49.00913 | 20.49934 | 88° | 119km/h | 5611m | 4.9m/s | -12.9°C | 0% | 511.8hPa | 0V | 00:00:00 | 00:00:00 | 00:00:00 | |
| OM5KV | 2026-09-05 11:37:28 | 49.00910 | 20.49889 | 87° | 117km/h | 5606m | 7.4m/s | -12.9°C | 95.4% | 512.1hPa | 0V | 00:00:00 | 00:00:00 | 00:00:00 | |
| GYPAP8-17 | 2026-09-05 11:37:25 | 49.00902 | 20.49749 | 86° | 128km/h | 5586m | 4.8m/s | 0°C | 0% | 513.5hPa | 0V | 00:00:00 | 00:00:00 | 00:00:00 | |
| SQ9EZE-14 | 2026-09-05 11:37:24 | 49.00899 | 20.49699 | 86° | 135km/h | 5580m | 7.6m/s | 0°C | 0% | 0hPa | 0V | 00:00:00 | 00:00:00 | 00:00:00 | |
| OM5KV | 2026-09-05 11:37:19 | 49.00884 | 20.49427 | 89° | 144km/h | 5549m | 5.5m/s | -12.5°C | 70.7% | 516.0hPa | 0V | 00:00:00 | 00:00:00 | 00:00:00 | |
| OM5KV | 2026-09-05 11:37:18 | 49.00883 | 20.49371 | 90° | 148km/h | 5543m | 6.1m/s | -12.4°C | 0% | 516.3hPa | 0V | 00:00:00 | 00:00:00 | 00:00:00 | |
| OM5KV | 2026-09-05 11:37:12 | 49.00896 | 20.49043 | 94° | 142km/h | 5505m | 6.5m/s | -12.1°C | 0% | 519.0hPa | 0V | 00:00:00 | 00:00:00 | 00:00:00 | |
| OM5KV | 2026-09-05 11:37:11 | 49.00896 | 20.48989 | 91° | 139km/h | 5499m | 5.6m/s | -12.0°C | 55.4% | 519.4hPa | 0V | 00:00:00 | 00:00:00 | 00:00:00 | |
| OM5KV | 2026-09-05 11:37:09 | 49.00893 | 20.48885 | 86° | 130km/h | 5487m | 6.2m/s | -11.9°C | 49.6% | 520.1hPa | 0V | 00:00:00 | 00:00:00 | 00:00:00 | |
| OM5KV | 2026-09-05 11:37:06 | 49.00883 | 20.48746 | 87° | 113km/h | 5466m | 6.7m/s | -11.7°C | 49.8% | 521.5hPa | 0V | 00:00:00 | 00:00:00 | 00:00:00 | |
| OM5KV | 2026-09-05 11:37:05 | 49.00882 | 20.48703 | 90° | 111km/h | 5460m | 5.7m/s | -11.7°C | 0% | 522.0hPa | 0V | 00:00:00 | 00:00:00 | 00:00:00 | |
| SQ9EZE-13 | 2026-09-05 11:37:02 | 49.00883 | 20.48570 | 93° | 122km/h | 5439m | 5.3m/s | -11.4°C | 42.9% | 523.4hPa | 0V | 00:00:00 | 00:00:00 | 00:00:00 | |
| OE3JTB-15 | 2026-09-05 11:36:57 | 49.00883 | 20.48293 | 94° | 119km/h | 5398m | 6.3m/s | 0°C | 0% | 0hPa | 0V | 00:00:00 | 00:00:00 | 00:00:00 | |
| OM5KV | 2026-09-05 11:36:55 | 49.00886 | 20.48249 | 98° | 115km/h | 5390m | 7.7m/s | -11.0°C | 0% | 526.6hPa | 0V | 00:00:00 | 00:00:00 | 00:00:00 | |
| OM5KV | 2026-09-05 11:36:53 | 49.00894 | 20.48156 | 97° | 128km/h | 5378m | 5.6m/s | -10.9°C | 0% | 527.6hPa | 0V | 00:00:00 | 00:00:00 | 00:00:00 | |
| OM5KV | 2026-09-05 11:36:51 | 49.00899 | 20.48056 | 93° | 133km/h | 5365m | 7.0m/s | -10.8°C | 0% | 528.3hPa | 0V | 00:00:00 | 00:00:00 | 00:00:00 | |
| SQ9EZE-13 | 2026-09-05 11:36:48 | 49.00900 | 20.47849 | 90° | 135km/h | 5341m | 5.6m/s | -10.6°C | 0% | 530.1hPa | 0V | 00:00:00 | 00:00:00 | 00:00:00 | |
| OM5KV | 2026-09-05 11:36:44 | 49.00899 | 20.47696 | 91° | 133km/h | 5326m | 5.7m/s | 0°C | 0% | 531.0hPa | 0V | 00:00:00 | 00:00:00 | 00:00:00 | |
| GYPAP8-17 | 2026-09-05 11:36:37 | 49.00910 | 20.47387 | 90° | 99km/h | 5274m | 6.3m/s | 0°C | 0% | 534.8hPa | 0V | 00:00:00 | 00:00:00 | 00:00:00 | |
| SQ9EZE-13 | 2026-09-05 11:36:32 | 49.00904 | 20.47172 | 93° | 126km/h | 5243m | 6.9m/s | -9.7°C | 0% | 0hPa | 0V | 00:00:00 | 00:00:00 | 00:00:00 | |
| OM5KV | 2026-09-05 11:36:31 | 49.00906 | 20.47124 | 96° | 124km/h | 5236m | 6.9m/s | 0°C | 0% | 0hPa | 0V | 00:00:00 | 00:00:00 | 00:00:00 | |
| OM5KV | 2026-09-05 11:36:26 | 49.00915 | 20.46897 | 86° | 113km/h | 5197m | 9.4m/s | 0°C | 0% | 0hPa | 0V | 00:00:00 | 00:00:00 | 00:00:00 | |
| OM5KV | 2026-09-05 11:36:25 | 49.00912 | 20.46854 | 84° | 113km/h | 5188m | 8.0m/s | 0°C | 0% | 0hPa | 0V | 00:00:00 | 00:00:00 | 00:00:00 | |
| OM5KV | 2026-09-05 11:36:20 | 49.00908 | 20.46657 | 98° | 104km/h | 5153m | 8.1m/s | 0°C | 0% | 0hPa | 0V | 00:00:00 | 00:00:00 | 00:00:00 | |
| OM5KV | 2026-09-05 11:36:19 | 49.00911 | 20.46617 | 98° | 108km/h | 5145m | 7.9m/s | 0°C | 0% | 0hPa | 0V | 00:00:00 | 00:00:00 | 00:00:00 | |
| SQ9EZE-13 | 2026-09-05 11:36:16 | 49.00917 | 20.46488 | 91° | 111km/h | 5124m | 6.8m/s | -8.7°C | 0% | 0hPa | 0V | 00:00:00 | 00:00:00 | 00:00:00 | |
| OM5KV | 2026-09-05 11:36:14 | 49.00916 | 20.46403 | 88° | 110km/h | 5110m | 7.2m/s | 0°C | 0% | 0hPa | 0V | 00:00:00 | 00:00:00 | 00:00:00 | |
| SQ9EZE-13 | 2026-09-05 11:36:01 | 49.00919 | 20.45862 | 95° | 88km/h | 5015m | 5.9m/s | -7.9°C | 0% | 0hPa | 0V | 00:00:00 | 00:00:00 | 00:00:00 | |
| OM5KV | 2026-09-05 11:35:59 | 49.00926 | 20.45792 | 102° | 97km/h | 5003m | 5.8m/s | 0°C | 0% | 0hPa | 0V | 00:00:00 | 00:00:00 | 00:00:00 | |
| SQ9EZE-13 | 2026-09-05 11:35:45 | 49.00936 | 20.45285 | 94° | 93km/h | 4905m | 8.5m/s | 0°C | 0% | 0hPa | 0V | 00:00:00 | 00:00:00 | 00:00:00 | |
| GYPAP8-17 | 2026-09-05 11:35:30 | 49.00979 | 20.44811 | 91° | 75km/h | 4808m | 8.2m/s | 0°C | 0% | 0hPa | 0V | 00:00:00 | 00:00:00 | 00:00:00 | |
| SQ9EZE-14 | 2026-09-05 11:35:26 | 49.00975 | 20.44689 | 86° | 80km/h | 4778m | 9.3m/s | 0°C | 0% | 0hPa | 0V | 00:00:00 | 00:00:00 | 00:00:00 |